<?xml version="1.0" encoding="UTF-8" standalone="no" ?>
<gpx xmlns="http://www.topografix.com/GPX/1/1" xmlns:xsi="http://www.w3.org/2001/XMLSchema-instance" xsi:schemaLocation="http://www.topografix.com/GPX/1/1 http://www.topografix.com/GPX/1/1/gpx.xsd" version="1.1" creator="VisuGPX - https://www.visugpx.com">
  <metadata>
    <name>Tour Percée en boucle par le Pas de Ragris</name>
    <desc><![CDATA[au départ du [b]Col de Marcieu[/b].
A ne pas suivre "le nez dans le guidon", le GPS est peu fiable au pied des falaises. 
.
Autres sorties en Chartreuse --> [url]https://www.visugpx.com/membres/87/chartreuse/[/url]]]></desc>
  </metadata>
  <trk>
    <name><![CDATA[16 juil. 2026 Ã  08:07:01]]></name>
    <extensions>
      <line xmlns="http://www.topografix.com/GPX/gpx_style/0/2">
        <color>0000FF</color>
        <width>4</width>
      </line>
    </extensions>
    <trkseg>
      <trkpt lat="45.35597" lon="5.91909">
        <ele>1070</ele>
        <time>2026-07-16T06:07:02Z</time>
      </trkpt>
      <trkpt lat="45.35597" lon="5.91909">
        <ele>1070</ele>
        <time>2026-07-16T06:07:03Z</time>
      </trkpt>
      <trkpt lat="45.35599" lon="5.91903">
        <ele>1067</ele>
        <time>2026-07-16T06:08:43Z</time>
      </trkpt>
      <trkpt lat="45.35604" lon="5.91896">
        <ele>1067</ele>
        <time>2026-07-16T06:09:05Z</time>
      </trkpt>
      <trkpt lat="45.35605" lon="5.9189">
        <ele>1068</ele>
        <time>2026-07-16T06:09:10Z</time>
      </trkpt>
      <trkpt lat="45.35598" lon="5.9189">
        <ele>1066</ele>
        <time>2026-07-16T06:09:27Z</time>
      </trkpt>
      <trkpt lat="45.35593" lon="5.91886">
        <ele>1065</ele>
        <time>2026-07-16T06:09:32Z</time>
      </trkpt>
      <trkpt lat="45.3559" lon="5.91874">
        <ele>1064</ele>
        <time>2026-07-16T06:09:40Z</time>
      </trkpt>
      <trkpt lat="45.35595" lon="5.91867">
        <ele>1066</ele>
        <time>2026-07-16T06:10:06Z</time>
      </trkpt>
      <trkpt lat="45.356" lon="5.91864">
        <ele>1066</ele>
        <time>2026-07-16T06:10:11Z</time>
      </trkpt>
      <trkpt lat="45.35604" lon="5.91863">
        <ele>1067</ele>
        <time>2026-07-16T06:10:15Z</time>
      </trkpt>
      <trkpt lat="45.35613" lon="5.91859">
        <ele>1066</ele>
        <time>2026-07-16T06:10:23Z</time>
      </trkpt>
      <trkpt lat="45.35617" lon="5.91857">
        <ele>1067</ele>
        <time>2026-07-16T06:10:28Z</time>
      </trkpt>
      <trkpt lat="45.35621" lon="5.91852">
        <ele>1066</ele>
        <time>2026-07-16T06:10:32Z</time>
      </trkpt>
      <trkpt lat="45.35624" lon="5.91847">
        <ele>1066</ele>
        <time>2026-07-16T06:10:36Z</time>
      </trkpt>
      <trkpt lat="45.35629" lon="5.91842">
        <ele>1067</ele>
        <time>2026-07-16T06:10:46Z</time>
      </trkpt>
      <trkpt lat="45.35634" lon="5.91835">
        <ele>1068</ele>
        <time>2026-07-16T06:10:52Z</time>
      </trkpt>
      <trkpt lat="45.35638" lon="5.91831">
        <ele>1067</ele>
        <time>2026-07-16T06:10:56Z</time>
      </trkpt>
      <trkpt lat="45.35642" lon="5.91826">
        <ele>1067</ele>
        <time>2026-07-16T06:11:01Z</time>
      </trkpt>
      <trkpt lat="45.35645" lon="5.9182">
        <ele>1068</ele>
        <time>2026-07-16T06:11:05Z</time>
      </trkpt>
      <trkpt lat="45.35648" lon="5.91813">
        <ele>1067</ele>
        <time>2026-07-16T06:11:09Z</time>
      </trkpt>
      <trkpt lat="45.35648" lon="5.91807">
        <ele>1068</ele>
        <time>2026-07-16T06:11:13Z</time>
      </trkpt>
      <trkpt lat="45.35647" lon="5.91797">
        <ele>1069</ele>
        <time>2026-07-16T06:11:20Z</time>
      </trkpt>
      <trkpt lat="45.35647" lon="5.91789">
        <ele>1070</ele>
        <time>2026-07-16T06:11:25Z</time>
      </trkpt>
      <trkpt lat="45.35644" lon="5.91782">
        <ele>1070</ele>
        <time>2026-07-16T06:11:34Z</time>
      </trkpt>
      <trkpt lat="45.35641" lon="5.91775">
        <ele>1071</ele>
        <time>2026-07-16T06:12:04Z</time>
      </trkpt>
      <trkpt lat="45.3564" lon="5.91769">
        <ele>1071</ele>
        <time>2026-07-16T06:12:09Z</time>
      </trkpt>
      <trkpt lat="45.35635" lon="5.91758">
        <ele>1074</ele>
        <time>2026-07-16T06:12:22Z</time>
      </trkpt>
      <trkpt lat="45.35633" lon="5.91752">
        <ele>1075</ele>
        <time>2026-07-16T06:12:28Z</time>
      </trkpt>
      <trkpt lat="45.35628" lon="5.9175">
        <ele>1075</ele>
        <time>2026-07-16T06:12:34Z</time>
      </trkpt>
      <trkpt lat="45.35625" lon="5.91745">
        <ele>1077</ele>
        <time>2026-07-16T06:12:39Z</time>
      </trkpt>
      <trkpt lat="45.35605" lon="5.91733">
        <ele>1085</ele>
        <time>2026-07-16T06:13:06Z</time>
      </trkpt>
      <trkpt lat="45.35601" lon="5.91727">
        <ele>1085</ele>
        <time>2026-07-16T06:13:17Z</time>
      </trkpt>
      <trkpt lat="45.35598" lon="5.91718">
        <ele>1085</ele>
        <time>2026-07-16T06:13:30Z</time>
      </trkpt>
      <trkpt lat="45.356" lon="5.91713">
        <ele>1088</ele>
        <time>2026-07-16T06:13:36Z</time>
      </trkpt>
      <trkpt lat="45.35604" lon="5.91711">
        <ele>1091</ele>
        <time>2026-07-16T06:13:41Z</time>
      </trkpt>
      <trkpt lat="45.35608" lon="5.91707">
        <ele>1092</ele>
        <time>2026-07-16T06:13:47Z</time>
      </trkpt>
      <trkpt lat="45.35611" lon="5.91696">
        <ele>1093</ele>
        <time>2026-07-16T06:13:59Z</time>
      </trkpt>
      <trkpt lat="45.35614" lon="5.91692">
        <ele>1096</ele>
        <time>2026-07-16T06:14:04Z</time>
      </trkpt>
      <trkpt lat="45.35617" lon="5.91685">
        <ele>1097</ele>
        <time>2026-07-16T06:14:12Z</time>
      </trkpt>
      <trkpt lat="45.35624" lon="5.91675">
        <ele>1098</ele>
        <time>2026-07-16T06:14:24Z</time>
      </trkpt>
      <trkpt lat="45.35625" lon="5.91669">
        <ele>1099</ele>
        <time>2026-07-16T06:14:29Z</time>
      </trkpt>
      <trkpt lat="45.35627" lon="5.9166">
        <ele>1098</ele>
        <time>2026-07-16T06:14:35Z</time>
      </trkpt>
      <trkpt lat="45.35626" lon="5.91652">
        <ele>1099</ele>
        <time>2026-07-16T06:14:41Z</time>
      </trkpt>
      <trkpt lat="45.3562" lon="5.91652">
        <ele>1100</ele>
        <time>2026-07-16T06:14:45Z</time>
      </trkpt>
      <trkpt lat="45.3562" lon="5.91645">
        <ele>1103</ele>
        <time>2026-07-16T06:14:59Z</time>
      </trkpt>
      <trkpt lat="45.35622" lon="5.91639">
        <ele>1104</ele>
        <time>2026-07-16T06:15:06Z</time>
      </trkpt>
      <trkpt lat="45.35623" lon="5.91633">
        <ele>1106</ele>
        <time>2026-07-16T06:15:17Z</time>
      </trkpt>
      <trkpt lat="45.35626" lon="5.91627">
        <ele>1107</ele>
        <time>2026-07-16T06:15:22Z</time>
      </trkpt>
      <trkpt lat="45.35628" lon="5.91621">
        <ele>1107</ele>
        <time>2026-07-16T06:15:30Z</time>
      </trkpt>
      <trkpt lat="45.35639" lon="5.91612">
        <ele>1109</ele>
        <time>2026-07-16T06:15:42Z</time>
      </trkpt>
      <trkpt lat="45.3564" lon="5.91606">
        <ele>1110</ele>
        <time>2026-07-16T06:15:50Z</time>
      </trkpt>
      <trkpt lat="45.35643" lon="5.91601">
        <ele>1111</ele>
        <time>2026-07-16T06:15:56Z</time>
      </trkpt>
      <trkpt lat="45.35649" lon="5.91592">
        <ele>1113</ele>
        <time>2026-07-16T06:16:07Z</time>
      </trkpt>
      <trkpt lat="45.35661" lon="5.91568">
        <ele>1117</ele>
        <time>2026-07-16T06:16:39Z</time>
      </trkpt>
      <trkpt lat="45.35664" lon="5.9156">
        <ele>1119</ele>
        <time>2026-07-16T06:16:51Z</time>
      </trkpt>
      <trkpt lat="45.35667" lon="5.91551">
        <ele>1119</ele>
        <time>2026-07-16T06:17:03Z</time>
      </trkpt>
      <trkpt lat="45.35673" lon="5.91545">
        <ele>1119</ele>
        <time>2026-07-16T06:17:14Z</time>
      </trkpt>
      <trkpt lat="45.35677" lon="5.91535">
        <ele>1119</ele>
        <time>2026-07-16T06:17:26Z</time>
      </trkpt>
      <trkpt lat="45.35684" lon="5.91522">
        <ele>1124</ele>
        <time>2026-07-16T06:17:44Z</time>
      </trkpt>
      <trkpt lat="45.35686" lon="5.91515">
        <ele>1125</ele>
        <time>2026-07-16T06:17:52Z</time>
      </trkpt>
      <trkpt lat="45.35691" lon="5.91508">
        <ele>1128</ele>
        <time>2026-07-16T06:18:04Z</time>
      </trkpt>
      <trkpt lat="45.35697" lon="5.9149">
        <ele>1134</ele>
        <time>2026-07-16T06:18:24Z</time>
      </trkpt>
      <trkpt lat="45.35704" lon="5.91475">
        <ele>1137</ele>
        <time>2026-07-16T06:18:41Z</time>
      </trkpt>
      <trkpt lat="45.35703" lon="5.91464">
        <ele>1138</ele>
        <time>2026-07-16T06:18:53Z</time>
      </trkpt>
      <trkpt lat="45.35701" lon="5.91454">
        <ele>1140</ele>
        <time>2026-07-16T06:19:05Z</time>
      </trkpt>
      <trkpt lat="45.35702" lon="5.91448">
        <ele>1141</ele>
        <time>2026-07-16T06:19:09Z</time>
      </trkpt>
      <trkpt lat="45.35703" lon="5.91442">
        <ele>1143</ele>
        <time>2026-07-16T06:19:15Z</time>
      </trkpt>
      <trkpt lat="45.35707" lon="5.91427">
        <ele>1146</ele>
        <time>2026-07-16T06:19:33Z</time>
      </trkpt>
      <trkpt lat="45.35709" lon="5.91407">
        <ele>1150</ele>
        <time>2026-07-16T06:19:56Z</time>
      </trkpt>
      <trkpt lat="45.3571" lon="5.914">
        <ele>1152</ele>
        <time>2026-07-16T06:20:08Z</time>
      </trkpt>
      <trkpt lat="45.35715" lon="5.91394">
        <ele>1153</ele>
        <time>2026-07-16T06:20:12Z</time>
      </trkpt>
      <trkpt lat="45.35721" lon="5.91376">
        <ele>1157</ele>
        <time>2026-07-16T06:20:38Z</time>
      </trkpt>
      <trkpt lat="45.35723" lon="5.9137">
        <ele>1159</ele>
        <time>2026-07-16T06:20:44Z</time>
      </trkpt>
      <trkpt lat="45.35725" lon="5.91361">
        <ele>1158</ele>
        <time>2026-07-16T06:20:56Z</time>
      </trkpt>
      <trkpt lat="45.35731" lon="5.91352">
        <ele>1158</ele>
        <time>2026-07-16T06:21:08Z</time>
      </trkpt>
      <trkpt lat="45.35737" lon="5.91331">
        <ele>1162</ele>
        <time>2026-07-16T06:21:31Z</time>
      </trkpt>
      <trkpt lat="45.35741" lon="5.91331">
        <ele>1164</ele>
        <time>2026-07-16T06:21:42Z</time>
      </trkpt>
      <trkpt lat="45.35749" lon="5.91334">
        <ele>1166</ele>
        <time>2026-07-16T06:21:54Z</time>
      </trkpt>
      <trkpt lat="45.35752" lon="5.91329">
        <ele>1169</ele>
        <time>2026-07-16T06:21:59Z</time>
      </trkpt>
      <trkpt lat="45.35758" lon="5.91327">
        <ele>1171</ele>
        <time>2026-07-16T06:22:08Z</time>
      </trkpt>
      <trkpt lat="45.35764" lon="5.91324">
        <ele>1174</ele>
        <time>2026-07-16T06:22:15Z</time>
      </trkpt>
      <trkpt lat="45.35768" lon="5.91318">
        <ele>1174</ele>
        <time>2026-07-16T06:22:19Z</time>
      </trkpt>
      <trkpt lat="45.35774" lon="5.91317">
        <ele>1177</ele>
        <time>2026-07-16T06:22:31Z</time>
      </trkpt>
      <trkpt lat="45.35779" lon="5.91313">
        <ele>1176</ele>
        <time>2026-07-16T06:22:36Z</time>
      </trkpt>
      <trkpt lat="45.35784" lon="5.91312">
        <ele>1177</ele>
        <time>2026-07-16T06:22:44Z</time>
      </trkpt>
      <trkpt lat="45.35789" lon="5.91315">
        <ele>1177</ele>
        <time>2026-07-16T06:22:49Z</time>
      </trkpt>
      <trkpt lat="45.35794" lon="5.91311">
        <ele>1177</ele>
        <time>2026-07-16T06:22:55Z</time>
      </trkpt>
      <trkpt lat="45.35817" lon="5.91301">
        <ele>1184</ele>
        <time>2026-07-16T06:23:18Z</time>
      </trkpt>
      <trkpt lat="45.35825" lon="5.91288">
        <ele>1185</ele>
        <time>2026-07-16T06:23:38Z</time>
      </trkpt>
      <trkpt lat="45.35825" lon="5.91281">
        <ele>1184</ele>
        <time>2026-07-16T06:23:44Z</time>
      </trkpt>
      <trkpt lat="45.35829" lon="5.91279">
        <ele>1184</ele>
        <time>2026-07-16T06:23:49Z</time>
      </trkpt>
      <trkpt lat="45.35835" lon="5.91278">
        <ele>1188</ele>
        <time>2026-07-16T06:24:09Z</time>
      </trkpt>
      <trkpt lat="45.3584" lon="5.91274">
        <ele>1189</ele>
        <time>2026-07-16T06:24:13Z</time>
      </trkpt>
      <trkpt lat="45.35843" lon="5.91267">
        <ele>1191</ele>
        <time>2026-07-16T06:24:20Z</time>
      </trkpt>
      <trkpt lat="45.35847" lon="5.91263">
        <ele>1191</ele>
        <time>2026-07-16T06:24:28Z</time>
      </trkpt>
      <trkpt lat="45.35864" lon="5.91256">
        <ele>1198</ele>
        <time>2026-07-16T06:24:51Z</time>
      </trkpt>
      <trkpt lat="45.35877" lon="5.91238">
        <ele>1205</ele>
        <time>2026-07-16T06:25:11Z</time>
      </trkpt>
      <trkpt lat="45.35884" lon="5.91236">
        <ele>1205</ele>
        <time>2026-07-16T06:25:25Z</time>
      </trkpt>
      <trkpt lat="45.35888" lon="5.91235">
        <ele>1205</ele>
        <time>2026-07-16T06:25:31Z</time>
      </trkpt>
      <trkpt lat="45.35892" lon="5.91229">
        <ele>1207</ele>
        <time>2026-07-16T06:25:40Z</time>
      </trkpt>
      <trkpt lat="45.35899" lon="5.91226">
        <ele>1209</ele>
        <time>2026-07-16T06:25:50Z</time>
      </trkpt>
      <trkpt lat="45.35906" lon="5.9122">
        <ele>1208</ele>
        <time>2026-07-16T06:25:59Z</time>
      </trkpt>
      <trkpt lat="45.3591" lon="5.91219">
        <ele>1210</ele>
        <time>2026-07-16T06:26:03Z</time>
      </trkpt>
      <trkpt lat="45.3591" lon="5.91212">
        <ele>1211</ele>
        <time>2026-07-16T06:26:17Z</time>
      </trkpt>
      <trkpt lat="45.35915" lon="5.91207">
        <ele>1212</ele>
        <time>2026-07-16T06:26:20Z</time>
      </trkpt>
      <trkpt lat="45.35921" lon="5.91201">
        <ele>1216</ele>
        <time>2026-07-16T06:26:45Z</time>
      </trkpt>
      <trkpt lat="45.35927" lon="5.912">
        <ele>1220</ele>
        <time>2026-07-16T06:26:52Z</time>
      </trkpt>
      <trkpt lat="45.35928" lon="5.91194">
        <ele>1222</ele>
        <time>2026-07-16T06:26:57Z</time>
      </trkpt>
      <trkpt lat="45.35936" lon="5.91193">
        <ele>1221</ele>
        <time>2026-07-16T06:27:07Z</time>
      </trkpt>
      <trkpt lat="45.35939" lon="5.91197">
        <ele>1222</ele>
        <time>2026-07-16T06:27:09Z</time>
      </trkpt>
      <trkpt lat="45.3594" lon="5.91189">
        <ele>1222</ele>
        <time>2026-07-16T06:27:16Z</time>
      </trkpt>
      <trkpt lat="45.3594" lon="5.91182">
        <ele>1221</ele>
        <time>2026-07-16T06:27:20Z</time>
      </trkpt>
      <trkpt lat="45.35945" lon="5.91176">
        <ele>1222</ele>
        <time>2026-07-16T06:27:28Z</time>
      </trkpt>
      <trkpt lat="45.3595" lon="5.91176">
        <ele>1222</ele>
        <time>2026-07-16T06:27:30Z</time>
      </trkpt>
      <trkpt lat="45.35955" lon="5.91177">
        <ele>1222</ele>
        <time>2026-07-16T06:27:32Z</time>
      </trkpt>
      <trkpt lat="45.35958" lon="5.91172">
        <ele>1223</ele>
        <time>2026-07-16T06:27:35Z</time>
      </trkpt>
      <trkpt lat="45.3596" lon="5.91164">
        <ele>1225</ele>
        <time>2026-07-16T06:27:48Z</time>
      </trkpt>
      <trkpt lat="45.35967" lon="5.91161">
        <ele>1228</ele>
        <time>2026-07-16T06:28:09Z</time>
      </trkpt>
      <trkpt lat="45.35971" lon="5.91165">
        <ele>1228</ele>
        <time>2026-07-16T06:28:12Z</time>
      </trkpt>
      <trkpt lat="45.35972" lon="5.91158">
        <ele>1226</ele>
        <time>2026-07-16T06:28:15Z</time>
      </trkpt>
      <trkpt lat="45.35976" lon="5.91152">
        <ele>1228</ele>
        <time>2026-07-16T06:28:30Z</time>
      </trkpt>
      <trkpt lat="45.35978" lon="5.9115">
        <ele>1232</ele>
        <time>2026-07-16T06:28:49Z</time>
      </trkpt>
      <trkpt lat="45.35983" lon="5.91155">
        <ele>1232</ele>
        <time>2026-07-16T06:28:58Z</time>
      </trkpt>
      <trkpt lat="45.35989" lon="5.91148">
        <ele>1238</ele>
        <time>2026-07-16T06:29:11Z</time>
      </trkpt>
      <trkpt lat="45.35994" lon="5.91142">
        <ele>1242</ele>
        <time>2026-07-16T06:29:25Z</time>
      </trkpt>
      <trkpt lat="45.36008" lon="5.91136">
        <ele>1242</ele>
        <time>2026-07-16T06:29:42Z</time>
      </trkpt>
      <trkpt lat="45.36014" lon="5.91138">
        <ele>1243</ele>
        <time>2026-07-16T06:29:51Z</time>
      </trkpt>
      <trkpt lat="45.36016" lon="5.91145">
        <ele>1244</ele>
        <time>2026-07-16T06:29:56Z</time>
      </trkpt>
      <trkpt lat="45.36022" lon="5.91141">
        <ele>1246</ele>
        <time>2026-07-16T06:30:08Z</time>
      </trkpt>
      <trkpt lat="45.36026" lon="5.91137">
        <ele>1246</ele>
        <time>2026-07-16T06:30:18Z</time>
      </trkpt>
      <trkpt lat="45.36033" lon="5.91144">
        <ele>1246</ele>
        <time>2026-07-16T06:30:29Z</time>
      </trkpt>
      <trkpt lat="45.36039" lon="5.91142">
        <ele>1247</ele>
        <time>2026-07-16T06:30:41Z</time>
      </trkpt>
      <trkpt lat="45.36046" lon="5.91138">
        <ele>1249</ele>
        <time>2026-07-16T06:30:54Z</time>
      </trkpt>
      <trkpt lat="45.3605" lon="5.91138">
        <ele>1251</ele>
        <time>2026-07-16T06:31:01Z</time>
      </trkpt>
      <trkpt lat="45.36059" lon="5.91138">
        <ele>1251</ele>
        <time>2026-07-16T06:31:13Z</time>
      </trkpt>
      <trkpt lat="45.36066" lon="5.91138">
        <ele>1250</ele>
        <time>2026-07-16T06:31:20Z</time>
      </trkpt>
      <trkpt lat="45.36071" lon="5.91135">
        <ele>1251</ele>
        <time>2026-07-16T06:31:25Z</time>
      </trkpt>
      <trkpt lat="45.36076" lon="5.91137">
        <ele>1252</ele>
        <time>2026-07-16T06:31:29Z</time>
      </trkpt>
      <trkpt lat="45.36081" lon="5.91135">
        <ele>1254</ele>
        <time>2026-07-16T06:31:32Z</time>
      </trkpt>
      <trkpt lat="45.36086" lon="5.91135">
        <ele>1256</ele>
        <time>2026-07-16T06:31:42Z</time>
      </trkpt>
      <trkpt lat="45.36089" lon="5.9114">
        <ele>1256</ele>
        <time>2026-07-16T06:31:46Z</time>
      </trkpt>
      <trkpt lat="45.36094" lon="5.9114">
        <ele>1257</ele>
        <time>2026-07-16T06:31:54Z</time>
      </trkpt>
      <trkpt lat="45.36103" lon="5.91138">
        <ele>1258</ele>
        <time>2026-07-16T06:32:05Z</time>
      </trkpt>
      <trkpt lat="45.3611" lon="5.91139">
        <ele>1260</ele>
        <time>2026-07-16T06:32:16Z</time>
      </trkpt>
      <trkpt lat="45.36116" lon="5.9114">
        <ele>1262</ele>
        <time>2026-07-16T06:32:24Z</time>
      </trkpt>
      <trkpt lat="45.36121" lon="5.91143">
        <ele>1262</ele>
        <time>2026-07-16T06:32:31Z</time>
      </trkpt>
      <trkpt lat="45.36129" lon="5.91147">
        <ele>1263</ele>
        <time>2026-07-16T06:32:41Z</time>
      </trkpt>
      <trkpt lat="45.36134" lon="5.91144">
        <ele>1263</ele>
        <time>2026-07-16T06:32:49Z</time>
      </trkpt>
      <trkpt lat="45.36141" lon="5.91141">
        <ele>1266</ele>
        <time>2026-07-16T06:33:00Z</time>
      </trkpt>
      <trkpt lat="45.36146" lon="5.9114">
        <ele>1268</ele>
        <time>2026-07-16T06:33:06Z</time>
      </trkpt>
      <trkpt lat="45.3615" lon="5.91134">
        <ele>1274</ele>
        <time>2026-07-16T06:33:21Z</time>
      </trkpt>
      <trkpt lat="45.36153" lon="5.9113">
        <ele>1273</ele>
        <time>2026-07-16T06:33:33Z</time>
      </trkpt>
      <trkpt lat="45.36158" lon="5.91122">
        <ele>1277</ele>
        <time>2026-07-16T06:33:44Z</time>
      </trkpt>
      <trkpt lat="45.36163" lon="5.91123">
        <ele>1278</ele>
        <time>2026-07-16T06:33:49Z</time>
      </trkpt>
      <trkpt lat="45.3617" lon="5.91122">
        <ele>1278</ele>
        <time>2026-07-16T06:33:58Z</time>
      </trkpt>
      <trkpt lat="45.36174" lon="5.91125">
        <ele>1278</ele>
        <time>2026-07-16T06:34:02Z</time>
      </trkpt>
      <trkpt lat="45.3618" lon="5.91124">
        <ele>1278</ele>
        <time>2026-07-16T06:34:09Z</time>
      </trkpt>
      <trkpt lat="45.36187" lon="5.91123">
        <ele>1278</ele>
        <time>2026-07-16T06:34:17Z</time>
      </trkpt>
      <trkpt lat="45.36192" lon="5.9112">
        <ele>1278</ele>
        <time>2026-07-16T06:34:24Z</time>
      </trkpt>
      <trkpt lat="45.36198" lon="5.91123">
        <ele>1279</ele>
        <time>2026-07-16T06:34:32Z</time>
      </trkpt>
      <trkpt lat="45.36212" lon="5.91123">
        <ele>1281</ele>
        <time>2026-07-16T06:34:51Z</time>
      </trkpt>
      <trkpt lat="45.36217" lon="5.91121">
        <ele>1281</ele>
        <time>2026-07-16T06:34:57Z</time>
      </trkpt>
      <trkpt lat="45.36222" lon="5.9112">
        <ele>1283</ele>
        <time>2026-07-16T06:35:02Z</time>
      </trkpt>
      <trkpt lat="45.36227" lon="5.91124">
        <ele>1284</ele>
        <time>2026-07-16T06:35:09Z</time>
      </trkpt>
      <trkpt lat="45.36233" lon="5.91124">
        <ele>1284</ele>
        <time>2026-07-16T06:35:17Z</time>
      </trkpt>
      <trkpt lat="45.36237" lon="5.91119">
        <ele>1284</ele>
        <time>2026-07-16T06:35:22Z</time>
      </trkpt>
      <trkpt lat="45.36241" lon="5.91115">
        <ele>1285</ele>
        <time>2026-07-16T06:35:26Z</time>
      </trkpt>
      <trkpt lat="45.36247" lon="5.91115">
        <ele>1285</ele>
        <time>2026-07-16T06:35:30Z</time>
      </trkpt>
      <trkpt lat="45.36253" lon="5.91119">
        <ele>1286</ele>
        <time>2026-07-16T06:35:37Z</time>
      </trkpt>
      <trkpt lat="45.3626" lon="5.91119">
        <ele>1285</ele>
        <time>2026-07-16T06:35:45Z</time>
      </trkpt>
      <trkpt lat="45.36266" lon="5.91121">
        <ele>1286</ele>
        <time>2026-07-16T06:35:56Z</time>
      </trkpt>
      <trkpt lat="45.36276" lon="5.91118">
        <ele>1287</ele>
        <time>2026-07-16T06:36:08Z</time>
      </trkpt>
      <trkpt lat="45.36296" lon="5.91119">
        <ele>1291</ele>
        <time>2026-07-16T06:36:32Z</time>
      </trkpt>
      <trkpt lat="45.36302" lon="5.91117">
        <ele>1292</ele>
        <time>2026-07-16T06:36:41Z</time>
      </trkpt>
      <trkpt lat="45.36323" lon="5.91107">
        <ele>1298</ele>
        <time>2026-07-16T06:37:13Z</time>
      </trkpt>
      <trkpt lat="45.36327" lon="5.91108">
        <ele>1299</ele>
        <time>2026-07-16T06:37:16Z</time>
      </trkpt>
      <trkpt lat="45.36334" lon="5.91105">
        <ele>1300</ele>
        <time>2026-07-16T06:37:23Z</time>
      </trkpt>
      <trkpt lat="45.36339" lon="5.911">
        <ele>1300</ele>
        <time>2026-07-16T06:37:30Z</time>
      </trkpt>
      <trkpt lat="45.3635" lon="5.91097">
        <ele>1302</ele>
        <time>2026-07-16T06:37:41Z</time>
      </trkpt>
      <trkpt lat="45.36358" lon="5.91096">
        <ele>1302</ele>
        <time>2026-07-16T06:37:49Z</time>
      </trkpt>
      <trkpt lat="45.36385" lon="5.91093">
        <ele>1306</ele>
        <time>2026-07-16T06:38:23Z</time>
      </trkpt>
      <trkpt lat="45.3639" lon="5.9109">
        <ele>1306</ele>
        <time>2026-07-16T06:38:31Z</time>
      </trkpt>
      <trkpt lat="45.36398" lon="5.91087">
        <ele>1307</ele>
        <time>2026-07-16T06:38:43Z</time>
      </trkpt>
      <trkpt lat="45.36404" lon="5.91081">
        <ele>1309</ele>
        <time>2026-07-16T06:38:54Z</time>
      </trkpt>
      <trkpt lat="45.36409" lon="5.91082">
        <ele>1311</ele>
        <time>2026-07-16T06:38:59Z</time>
      </trkpt>
      <trkpt lat="45.36414" lon="5.91076">
        <ele>1311</ele>
        <time>2026-07-16T06:39:04Z</time>
      </trkpt>
      <trkpt lat="45.36418" lon="5.91072">
        <ele>1312</ele>
        <time>2026-07-16T06:39:09Z</time>
      </trkpt>
      <trkpt lat="45.36421" lon="5.91067">
        <ele>1312</ele>
        <time>2026-07-16T06:39:13Z</time>
      </trkpt>
      <trkpt lat="45.36422" lon="5.9106">
        <ele>1312</ele>
        <time>2026-07-16T06:39:17Z</time>
      </trkpt>
      <trkpt lat="45.36425" lon="5.91052">
        <ele>1314</ele>
        <time>2026-07-16T06:39:22Z</time>
      </trkpt>
      <trkpt lat="45.36428" lon="5.91046">
        <ele>1313</ele>
        <time>2026-07-16T06:39:25Z</time>
      </trkpt>
      <trkpt lat="45.36438" lon="5.91032">
        <ele>1316</ele>
        <time>2026-07-16T06:39:38Z</time>
      </trkpt>
      <trkpt lat="45.36444" lon="5.91029">
        <ele>1317</ele>
        <time>2026-07-16T06:39:48Z</time>
      </trkpt>
      <trkpt lat="45.36447" lon="5.91024">
        <ele>1317</ele>
        <time>2026-07-16T06:39:54Z</time>
      </trkpt>
      <trkpt lat="45.36451" lon="5.91018">
        <ele>1317</ele>
        <time>2026-07-16T06:39:58Z</time>
      </trkpt>
      <trkpt lat="45.36455" lon="5.91014">
        <ele>1317</ele>
        <time>2026-07-16T06:40:01Z</time>
      </trkpt>
      <trkpt lat="45.36461" lon="5.91009">
        <ele>1318</ele>
        <time>2026-07-16T06:40:09Z</time>
      </trkpt>
      <trkpt lat="45.36468" lon="5.91007">
        <ele>1318</ele>
        <time>2026-07-16T06:40:12Z</time>
      </trkpt>
      <trkpt lat="45.36472" lon="5.91003">
        <ele>1318</ele>
        <time>2026-07-16T06:40:16Z</time>
      </trkpt>
      <trkpt lat="45.36476" lon="5.91011">
        <ele>1320</ele>
        <time>2026-07-16T06:40:23Z</time>
      </trkpt>
      <trkpt lat="45.3648" lon="5.91002">
        <ele>1320</ele>
        <time>2026-07-16T06:40:27Z</time>
      </trkpt>
      <trkpt lat="45.36484" lon="5.90998">
        <ele>1323</ele>
        <time>2026-07-16T06:40:40Z</time>
      </trkpt>
      <trkpt lat="45.3649" lon="5.90999">
        <ele>1324</ele>
        <time>2026-07-16T06:40:46Z</time>
      </trkpt>
      <trkpt lat="45.36495" lon="5.91003">
        <ele>1323</ele>
        <time>2026-07-16T06:40:54Z</time>
      </trkpt>
      <trkpt lat="45.36501" lon="5.91012">
        <ele>1322</ele>
        <time>2026-07-16T06:41:06Z</time>
      </trkpt>
      <trkpt lat="45.36505" lon="5.91017">
        <ele>1322</ele>
        <time>2026-07-16T06:41:15Z</time>
      </trkpt>
      <trkpt lat="45.36506" lon="5.91023">
        <ele>1323</ele>
        <time>2026-07-16T06:41:19Z</time>
      </trkpt>
      <trkpt lat="45.36518" lon="5.91027">
        <ele>1323</ele>
        <time>2026-07-16T06:41:34Z</time>
      </trkpt>
      <trkpt lat="45.36527" lon="5.91036">
        <ele>1325</ele>
        <time>2026-07-16T06:41:46Z</time>
      </trkpt>
      <trkpt lat="45.36532" lon="5.91037">
        <ele>1326</ele>
        <time>2026-07-16T06:41:52Z</time>
      </trkpt>
      <trkpt lat="45.36536" lon="5.91041">
        <ele>1328</ele>
        <time>2026-07-16T06:41:57Z</time>
      </trkpt>
      <trkpt lat="45.36543" lon="5.9104">
        <ele>1330</ele>
        <time>2026-07-16T06:42:05Z</time>
      </trkpt>
      <trkpt lat="45.36549" lon="5.91035">
        <ele>1330</ele>
        <time>2026-07-16T06:42:12Z</time>
      </trkpt>
      <trkpt lat="45.36554" lon="5.91034">
        <ele>1330</ele>
        <time>2026-07-16T06:42:17Z</time>
      </trkpt>
      <trkpt lat="45.36563" lon="5.91036">
        <ele>1332</ele>
        <time>2026-07-16T06:42:25Z</time>
      </trkpt>
      <trkpt lat="45.36567" lon="5.9104">
        <ele>1333</ele>
        <time>2026-07-16T06:42:32Z</time>
      </trkpt>
      <trkpt lat="45.36576" lon="5.91042">
        <ele>1334</ele>
        <time>2026-07-16T06:42:41Z</time>
      </trkpt>
      <trkpt lat="45.36582" lon="5.9104">
        <ele>1331</ele>
        <time>2026-07-16T06:42:47Z</time>
      </trkpt>
      <trkpt lat="45.3659" lon="5.91043">
        <ele>1333</ele>
        <time>2026-07-16T06:42:56Z</time>
      </trkpt>
      <trkpt lat="45.36594" lon="5.91047">
        <ele>1333</ele>
        <time>2026-07-16T06:43:00Z</time>
      </trkpt>
      <trkpt lat="45.36599" lon="5.91045">
        <ele>1333</ele>
        <time>2026-07-16T06:43:03Z</time>
      </trkpt>
      <trkpt lat="45.36602" lon="5.91042">
        <ele>1333</ele>
        <time>2026-07-16T06:43:06Z</time>
      </trkpt>
      <trkpt lat="45.36608" lon="5.91042">
        <ele>1333</ele>
        <time>2026-07-16T06:43:09Z</time>
      </trkpt>
      <trkpt lat="45.36614" lon="5.9104">
        <ele>1333</ele>
        <time>2026-07-16T06:43:17Z</time>
      </trkpt>
      <trkpt lat="45.36619" lon="5.9104">
        <ele>1333</ele>
        <time>2026-07-16T06:43:21Z</time>
      </trkpt>
      <trkpt lat="45.36624" lon="5.91041">
        <ele>1333</ele>
        <time>2026-07-16T06:43:24Z</time>
      </trkpt>
      <trkpt lat="45.36629" lon="5.9104">
        <ele>1333</ele>
        <time>2026-07-16T06:43:27Z</time>
      </trkpt>
      <trkpt lat="45.36641" lon="5.91053">
        <ele>1335</ele>
        <time>2026-07-16T06:43:42Z</time>
      </trkpt>
      <trkpt lat="45.36645" lon="5.91054">
        <ele>1336</ele>
        <time>2026-07-16T06:43:46Z</time>
      </trkpt>
      <trkpt lat="45.36655" lon="5.91048">
        <ele>1338</ele>
        <time>2026-07-16T06:43:57Z</time>
      </trkpt>
      <trkpt lat="45.3666" lon="5.91047">
        <ele>1338</ele>
        <time>2026-07-16T06:44:01Z</time>
      </trkpt>
      <trkpt lat="45.36668" lon="5.91041">
        <ele>1338</ele>
        <time>2026-07-16T06:44:07Z</time>
      </trkpt>
      <trkpt lat="45.36672" lon="5.91041">
        <ele>1337</ele>
        <time>2026-07-16T06:44:10Z</time>
      </trkpt>
      <trkpt lat="45.36676" lon="5.91042">
        <ele>1337</ele>
        <time>2026-07-16T06:44:15Z</time>
      </trkpt>
      <trkpt lat="45.36682" lon="5.91041">
        <ele>1337</ele>
        <time>2026-07-16T06:44:19Z</time>
      </trkpt>
      <trkpt lat="45.36685" lon="5.91037">
        <ele>1338</ele>
        <time>2026-07-16T06:44:23Z</time>
      </trkpt>
      <trkpt lat="45.3669" lon="5.91035">
        <ele>1338</ele>
        <time>2026-07-16T06:44:29Z</time>
      </trkpt>
      <trkpt lat="45.36694" lon="5.91034">
        <ele>1338</ele>
        <time>2026-07-16T06:44:32Z</time>
      </trkpt>
      <trkpt lat="45.36698" lon="5.91031">
        <ele>1338</ele>
        <time>2026-07-16T06:44:41Z</time>
      </trkpt>
      <trkpt lat="45.36704" lon="5.91032">
        <ele>1340</ele>
        <time>2026-07-16T06:44:47Z</time>
      </trkpt>
      <trkpt lat="45.36709" lon="5.91033">
        <ele>1339</ele>
        <time>2026-07-16T06:44:53Z</time>
      </trkpt>
      <trkpt lat="45.36715" lon="5.91036">
        <ele>1341</ele>
        <time>2026-07-16T06:44:58Z</time>
      </trkpt>
      <trkpt lat="45.36736" lon="5.91031">
        <ele>1345</ele>
        <time>2026-07-16T06:45:27Z</time>
      </trkpt>
      <trkpt lat="45.36741" lon="5.91027">
        <ele>1346</ele>
        <time>2026-07-16T06:45:33Z</time>
      </trkpt>
      <trkpt lat="45.36746" lon="5.91025">
        <ele>1346</ele>
        <time>2026-07-16T06:45:37Z</time>
      </trkpt>
      <trkpt lat="45.36757" lon="5.91016">
        <ele>1349</ele>
        <time>2026-07-16T06:45:49Z</time>
      </trkpt>
      <trkpt lat="45.36762" lon="5.91018">
        <ele>1349</ele>
        <time>2026-07-16T06:45:57Z</time>
      </trkpt>
      <trkpt lat="45.36771" lon="5.91022">
        <ele>1351</ele>
        <time>2026-07-16T06:46:11Z</time>
      </trkpt>
      <trkpt lat="45.36777" lon="5.91018">
        <ele>1350</ele>
        <time>2026-07-16T06:46:18Z</time>
      </trkpt>
      <trkpt lat="45.36782" lon="5.91018">
        <ele>1350</ele>
        <time>2026-07-16T06:46:26Z</time>
      </trkpt>
      <trkpt lat="45.36788" lon="5.91018">
        <ele>1350</ele>
        <time>2026-07-16T06:46:31Z</time>
      </trkpt>
      <trkpt lat="45.36793" lon="5.91017">
        <ele>1352</ele>
        <time>2026-07-16T06:46:37Z</time>
      </trkpt>
      <trkpt lat="45.368" lon="5.91019">
        <ele>1352</ele>
        <time>2026-07-16T06:46:45Z</time>
      </trkpt>
      <trkpt lat="45.36806" lon="5.9102">
        <ele>1353</ele>
        <time>2026-07-16T06:46:52Z</time>
      </trkpt>
      <trkpt lat="45.36813" lon="5.91021">
        <ele>1353</ele>
        <time>2026-07-16T06:46:59Z</time>
      </trkpt>
      <trkpt lat="45.36819" lon="5.9102">
        <ele>1355</ele>
        <time>2026-07-16T06:47:07Z</time>
      </trkpt>
      <trkpt lat="45.36825" lon="5.9102">
        <ele>1356</ele>
        <time>2026-07-16T06:47:15Z</time>
      </trkpt>
      <trkpt lat="45.36832" lon="5.91016">
        <ele>1359</ele>
        <time>2026-07-16T06:47:26Z</time>
      </trkpt>
      <trkpt lat="45.36837" lon="5.91018">
        <ele>1360</ele>
        <time>2026-07-16T06:47:31Z</time>
      </trkpt>
      <trkpt lat="45.36843" lon="5.91017">
        <ele>1361</ele>
        <time>2026-07-16T06:47:37Z</time>
      </trkpt>
      <trkpt lat="45.36847" lon="5.91014">
        <ele>1361</ele>
        <time>2026-07-16T06:47:44Z</time>
      </trkpt>
      <trkpt lat="45.36863" lon="5.91011">
        <ele>1365</ele>
        <time>2026-07-16T06:48:01Z</time>
      </trkpt>
      <trkpt lat="45.36869" lon="5.91015">
        <ele>1366</ele>
        <time>2026-07-16T06:48:08Z</time>
      </trkpt>
      <trkpt lat="45.36874" lon="5.91019">
        <ele>1366</ele>
        <time>2026-07-16T06:48:14Z</time>
      </trkpt>
      <trkpt lat="45.3688" lon="5.91015">
        <ele>1367</ele>
        <time>2026-07-16T06:48:22Z</time>
      </trkpt>
      <trkpt lat="45.36884" lon="5.91018">
        <ele>1368</ele>
        <time>2026-07-16T06:48:27Z</time>
      </trkpt>
      <trkpt lat="45.36891" lon="5.91014">
        <ele>1367</ele>
        <time>2026-07-16T06:48:35Z</time>
      </trkpt>
      <trkpt lat="45.36896" lon="5.91015">
        <ele>1369</ele>
        <time>2026-07-16T06:48:43Z</time>
      </trkpt>
      <trkpt lat="45.36906" lon="5.91004">
        <ele>1375</ele>
        <time>2026-07-16T06:49:00Z</time>
      </trkpt>
      <trkpt lat="45.36913" lon="5.91004">
        <ele>1375</ele>
        <time>2026-07-16T06:49:08Z</time>
      </trkpt>
      <trkpt lat="45.36918" lon="5.91006">
        <ele>1376</ele>
        <time>2026-07-16T06:49:16Z</time>
      </trkpt>
      <trkpt lat="45.36925" lon="5.91006">
        <ele>1379</ele>
        <time>2026-07-16T06:49:28Z</time>
      </trkpt>
      <trkpt lat="45.3693" lon="5.91006">
        <ele>1379</ele>
        <time>2026-07-16T06:49:36Z</time>
      </trkpt>
      <trkpt lat="45.36937" lon="5.91004">
        <ele>1381</ele>
        <time>2026-07-16T06:49:48Z</time>
      </trkpt>
      <trkpt lat="45.36942" lon="5.91006">
        <ele>1381</ele>
        <time>2026-07-16T06:49:56Z</time>
      </trkpt>
      <trkpt lat="45.36946" lon="5.91003">
        <ele>1382</ele>
        <time>2026-07-16T06:50:02Z</time>
      </trkpt>
      <trkpt lat="45.36951" lon="5.91003">
        <ele>1383</ele>
        <time>2026-07-16T06:50:07Z</time>
      </trkpt>
      <trkpt lat="45.36955" lon="5.90998">
        <ele>1383</ele>
        <time>2026-07-16T06:50:12Z</time>
      </trkpt>
      <trkpt lat="45.36955" lon="5.90989">
        <ele>1388</ele>
        <time>2026-07-16T06:50:21Z</time>
      </trkpt>
      <trkpt lat="45.3695" lon="5.90985">
        <ele>1387</ele>
        <time>2026-07-16T06:50:27Z</time>
      </trkpt>
      <trkpt lat="45.36945" lon="5.90983">
        <ele>1387</ele>
        <time>2026-07-16T06:50:31Z</time>
      </trkpt>
      <trkpt lat="45.36943" lon="5.90978">
        <ele>1388</ele>
        <time>2026-07-16T06:50:35Z</time>
      </trkpt>
      <trkpt lat="45.36937" lon="5.90975">
        <ele>1390</ele>
        <time>2026-07-16T06:50:44Z</time>
      </trkpt>
      <trkpt lat="45.36932" lon="5.90969">
        <ele>1391</ele>
        <time>2026-07-16T06:50:55Z</time>
      </trkpt>
      <trkpt lat="45.36929" lon="5.90961">
        <ele>1393</ele>
        <time>2026-07-16T06:51:06Z</time>
      </trkpt>
      <trkpt lat="45.36923" lon="5.90956">
        <ele>1398</ele>
        <time>2026-07-16T06:51:20Z</time>
      </trkpt>
      <trkpt lat="45.36907" lon="5.90944">
        <ele>1403</ele>
        <time>2026-07-16T06:51:50Z</time>
      </trkpt>
      <trkpt lat="45.36904" lon="5.90939">
        <ele>1403</ele>
        <time>2026-07-16T06:51:56Z</time>
      </trkpt>
      <trkpt lat="45.36899" lon="5.9093">
        <ele>1408</ele>
        <time>2026-07-16T06:52:09Z</time>
      </trkpt>
      <trkpt lat="45.36894" lon="5.90927">
        <ele>1409</ele>
        <time>2026-07-16T06:52:15Z</time>
      </trkpt>
      <trkpt lat="45.3689" lon="5.90923">
        <ele>1414</ele>
        <time>2026-07-16T06:52:29Z</time>
      </trkpt>
      <trkpt lat="45.36884" lon="5.90922">
        <ele>1415</ele>
        <time>2026-07-16T06:52:34Z</time>
      </trkpt>
      <trkpt lat="45.3688" lon="5.90921">
        <ele>1416</ele>
        <time>2026-07-16T06:52:44Z</time>
      </trkpt>
      <trkpt lat="45.36875" lon="5.90918">
        <ele>1415</ele>
        <time>2026-07-16T06:52:48Z</time>
      </trkpt>
      <trkpt lat="45.36869" lon="5.90916">
        <ele>1415</ele>
        <time>2026-07-16T06:52:58Z</time>
      </trkpt>
      <trkpt lat="45.36866" lon="5.9091">
        <ele>1415</ele>
        <time>2026-07-16T06:53:03Z</time>
      </trkpt>
      <trkpt lat="45.36862" lon="5.90906">
        <ele>1415</ele>
        <time>2026-07-16T06:53:11Z</time>
      </trkpt>
      <trkpt lat="45.36851" lon="5.90905">
        <ele>1417</ele>
        <time>2026-07-16T06:53:24Z</time>
      </trkpt>
      <trkpt lat="45.36851" lon="5.90897">
        <ele>1419</ele>
        <time>2026-07-16T06:53:33Z</time>
      </trkpt>
      <trkpt lat="45.36847" lon="5.90891">
        <ele>1419</ele>
        <time>2026-07-16T06:53:38Z</time>
      </trkpt>
      <trkpt lat="45.36844" lon="5.90884">
        <ele>1419</ele>
        <time>2026-07-16T06:53:46Z</time>
      </trkpt>
      <trkpt lat="45.36842" lon="5.90878">
        <ele>1419</ele>
        <time>2026-07-16T06:53:50Z</time>
      </trkpt>
      <trkpt lat="45.36834" lon="5.90874">
        <ele>1419</ele>
        <time>2026-07-16T06:54:05Z</time>
      </trkpt>
      <trkpt lat="45.3683" lon="5.90874">
        <ele>1422</ele>
        <time>2026-07-16T06:54:10Z</time>
      </trkpt>
      <trkpt lat="45.36825" lon="5.90871">
        <ele>1426</ele>
        <time>2026-07-16T06:54:17Z</time>
      </trkpt>
      <trkpt lat="45.36822" lon="5.90866">
        <ele>1427</ele>
        <time>2026-07-16T06:54:23Z</time>
      </trkpt>
      <trkpt lat="45.36816" lon="5.90865">
        <ele>1430</ele>
        <time>2026-07-16T06:54:31Z</time>
      </trkpt>
      <trkpt lat="45.36811" lon="5.90863">
        <ele>1430</ele>
        <time>2026-07-16T06:54:36Z</time>
      </trkpt>
      <trkpt lat="45.36806" lon="5.90857">
        <ele>1432</ele>
        <time>2026-07-16T06:54:45Z</time>
      </trkpt>
      <trkpt lat="45.36803" lon="5.90849">
        <ele>1433</ele>
        <time>2026-07-16T06:54:49Z</time>
      </trkpt>
      <trkpt lat="45.36798" lon="5.90848">
        <ele>1433</ele>
        <time>2026-07-16T06:54:54Z</time>
      </trkpt>
      <trkpt lat="45.3679" lon="5.90846">
        <ele>1437</ele>
        <time>2026-07-16T06:55:04Z</time>
      </trkpt>
      <trkpt lat="45.36781" lon="5.90843">
        <ele>1438</ele>
        <time>2026-07-16T06:55:15Z</time>
      </trkpt>
      <trkpt lat="45.36776" lon="5.90845">
        <ele>1440</ele>
        <time>2026-07-16T06:55:19Z</time>
      </trkpt>
      <trkpt lat="45.36772" lon="5.90843">
        <ele>1440</ele>
        <time>2026-07-16T06:55:23Z</time>
      </trkpt>
      <trkpt lat="45.36767" lon="5.90844">
        <ele>1441</ele>
        <time>2026-07-16T06:55:27Z</time>
      </trkpt>
      <trkpt lat="45.36761" lon="5.90849">
        <ele>1443</ele>
        <time>2026-07-16T06:55:34Z</time>
      </trkpt>
      <trkpt lat="45.36755" lon="5.90854">
        <ele>1442</ele>
        <time>2026-07-16T06:55:42Z</time>
      </trkpt>
      <trkpt lat="45.36751" lon="5.90854">
        <ele>1442</ele>
        <time>2026-07-16T06:55:50Z</time>
      </trkpt>
      <trkpt lat="45.36743" lon="5.90855">
        <ele>1442</ele>
        <time>2026-07-16T06:56:02Z</time>
      </trkpt>
      <trkpt lat="45.36739" lon="5.90859">
        <ele>1442</ele>
        <time>2026-07-16T06:56:05Z</time>
      </trkpt>
      <trkpt lat="45.36734" lon="5.90849">
        <ele>1442</ele>
        <time>2026-07-16T06:56:19Z</time>
      </trkpt>
      <trkpt lat="45.36729" lon="5.90849">
        <ele>1442</ele>
        <time>2026-07-16T06:56:25Z</time>
      </trkpt>
      <trkpt lat="45.3672" lon="5.90845">
        <ele>1442</ele>
        <time>2026-07-16T06:56:33Z</time>
      </trkpt>
      <trkpt lat="45.36715" lon="5.90844">
        <ele>1443</ele>
        <time>2026-07-16T06:56:38Z</time>
      </trkpt>
      <trkpt lat="45.36704" lon="5.90836">
        <ele>1446</ele>
        <time>2026-07-16T06:56:50Z</time>
      </trkpt>
      <trkpt lat="45.367" lon="5.90839">
        <ele>1447</ele>
        <time>2026-07-16T06:56:54Z</time>
      </trkpt>
      <trkpt lat="45.36696" lon="5.90842">
        <ele>1446</ele>
        <time>2026-07-16T06:56:57Z</time>
      </trkpt>
      <trkpt lat="45.36695" lon="5.90829">
        <ele>1447</ele>
        <time>2026-07-16T06:57:06Z</time>
      </trkpt>
      <trkpt lat="45.36695" lon="5.90823">
        <ele>1449</ele>
        <time>2026-07-16T06:57:14Z</time>
      </trkpt>
      <trkpt lat="45.36689" lon="5.90823">
        <ele>1449</ele>
        <time>2026-07-16T06:57:19Z</time>
      </trkpt>
      <trkpt lat="45.36687" lon="5.90813">
        <ele>1450</ele>
        <time>2026-07-16T06:57:27Z</time>
      </trkpt>
      <trkpt lat="45.36679" lon="5.9081">
        <ele>1453</ele>
        <time>2026-07-16T06:57:41Z</time>
      </trkpt>
      <trkpt lat="45.36678" lon="5.90801">
        <ele>1454</ele>
        <time>2026-07-16T06:57:45Z</time>
      </trkpt>
      <trkpt lat="45.36676" lon="5.90795">
        <ele>1456</ele>
        <time>2026-07-16T06:57:50Z</time>
      </trkpt>
      <trkpt lat="45.36663" lon="5.90792">
        <ele>1458</ele>
        <time>2026-07-16T06:58:03Z</time>
      </trkpt>
      <trkpt lat="45.36652" lon="5.9079">
        <ele>1457</ele>
        <time>2026-07-16T06:58:20Z</time>
      </trkpt>
      <trkpt lat="45.36648" lon="5.90783">
        <ele>1457</ele>
        <time>2026-07-16T06:58:26Z</time>
      </trkpt>
      <trkpt lat="45.36641" lon="5.90762">
        <ele>1460</ele>
        <time>2026-07-16T06:58:45Z</time>
      </trkpt>
      <trkpt lat="45.36636" lon="5.90766">
        <ele>1461</ele>
        <time>2026-07-16T06:58:52Z</time>
      </trkpt>
      <trkpt lat="45.36633" lon="5.90761">
        <ele>1461</ele>
        <time>2026-07-16T06:58:57Z</time>
      </trkpt>
      <trkpt lat="45.36629" lon="5.90754">
        <ele>1461</ele>
        <time>2026-07-16T06:59:02Z</time>
      </trkpt>
      <trkpt lat="45.36626" lon="5.90749">
        <ele>1463</ele>
        <time>2026-07-16T06:59:07Z</time>
      </trkpt>
      <trkpt lat="45.36621" lon="5.90745">
        <ele>1464</ele>
        <time>2026-07-16T06:59:14Z</time>
      </trkpt>
      <trkpt lat="45.36628" lon="5.90743">
        <ele>1469</ele>
        <time>2026-07-16T07:01:17Z</time>
      </trkpt>
      <trkpt lat="45.36632" lon="5.90749">
        <ele>1469</ele>
        <time>2026-07-16T07:01:22Z</time>
      </trkpt>
      <trkpt lat="45.36635" lon="5.90742">
        <ele>1471</ele>
        <time>2026-07-16T07:01:31Z</time>
      </trkpt>
      <trkpt lat="45.3664" lon="5.90738">
        <ele>1474</ele>
        <time>2026-07-16T07:01:42Z</time>
      </trkpt>
      <trkpt lat="45.36652" lon="5.90736">
        <ele>1479</ele>
        <time>2026-07-16T07:02:03Z</time>
      </trkpt>
      <trkpt lat="45.36657" lon="5.90736">
        <ele>1480</ele>
        <time>2026-07-16T07:02:15Z</time>
      </trkpt>
      <trkpt lat="45.36672" lon="5.90731">
        <ele>1486</ele>
        <time>2026-07-16T07:02:39Z</time>
      </trkpt>
      <trkpt lat="45.36676" lon="5.90726">
        <ele>1487</ele>
        <time>2026-07-16T07:02:43Z</time>
      </trkpt>
      <trkpt lat="45.36681" lon="5.90728">
        <ele>1492</ele>
        <time>2026-07-16T07:03:02Z</time>
      </trkpt>
      <trkpt lat="45.36685" lon="5.90729">
        <ele>1492</ele>
        <time>2026-07-16T07:03:07Z</time>
      </trkpt>
      <trkpt lat="45.36689" lon="5.90733">
        <ele>1493</ele>
        <time>2026-07-16T07:03:12Z</time>
      </trkpt>
      <trkpt lat="45.36697" lon="5.90733">
        <ele>1493</ele>
        <time>2026-07-16T07:03:23Z</time>
      </trkpt>
      <trkpt lat="45.36701" lon="5.90737">
        <ele>1492</ele>
        <time>2026-07-16T07:03:28Z</time>
      </trkpt>
      <trkpt lat="45.36704" lon="5.90745">
        <ele>1492</ele>
        <time>2026-07-16T07:03:35Z</time>
      </trkpt>
      <trkpt lat="45.3671" lon="5.90744">
        <ele>1492</ele>
        <time>2026-07-16T07:03:42Z</time>
      </trkpt>
      <trkpt lat="45.36714" lon="5.90741">
        <ele>1493</ele>
        <time>2026-07-16T07:03:52Z</time>
      </trkpt>
      <trkpt lat="45.36721" lon="5.90744">
        <ele>1497</ele>
        <time>2026-07-16T07:04:10Z</time>
      </trkpt>
      <trkpt lat="45.36728" lon="5.90742">
        <ele>1499</ele>
        <time>2026-07-16T07:04:28Z</time>
      </trkpt>
      <trkpt lat="45.36732" lon="5.90738">
        <ele>1502</ele>
        <time>2026-07-16T07:04:35Z</time>
      </trkpt>
      <trkpt lat="45.36736" lon="5.90735">
        <ele>1506</ele>
        <time>2026-07-16T07:04:47Z</time>
      </trkpt>
      <trkpt lat="45.36734" lon="5.90729">
        <ele>1506</ele>
        <time>2026-07-16T07:04:52Z</time>
      </trkpt>
      <trkpt lat="45.36736" lon="5.9072">
        <ele>1508</ele>
        <time>2026-07-16T07:04:59Z</time>
      </trkpt>
      <trkpt lat="45.36741" lon="5.9072">
        <ele>1510</ele>
        <time>2026-07-16T07:05:09Z</time>
      </trkpt>
      <trkpt lat="45.36743" lon="5.9071">
        <ele>1513</ele>
        <time>2026-07-16T07:05:24Z</time>
      </trkpt>
      <trkpt lat="45.3674" lon="5.90701">
        <ele>1515</ele>
        <time>2026-07-16T07:05:35Z</time>
      </trkpt>
      <trkpt lat="45.36741" lon="5.90694">
        <ele>1515</ele>
        <time>2026-07-16T07:05:38Z</time>
      </trkpt>
      <trkpt lat="45.36742" lon="5.90686">
        <ele>1517</ele>
        <time>2026-07-16T07:05:57Z</time>
      </trkpt>
      <trkpt lat="45.36743" lon="5.90675">
        <ele>1521</ele>
        <time>2026-07-16T07:06:24Z</time>
      </trkpt>
      <trkpt lat="45.36743" lon="5.90669">
        <ele>1522</ele>
        <time>2026-07-16T07:06:32Z</time>
      </trkpt>
      <trkpt lat="45.36748" lon="5.90665">
        <ele>1527</ele>
        <time>2026-07-16T07:06:52Z</time>
      </trkpt>
      <trkpt lat="45.36751" lon="5.90656">
        <ele>1529</ele>
        <time>2026-07-16T07:07:04Z</time>
      </trkpt>
      <trkpt lat="45.36755" lon="5.90652">
        <ele>1532</ele>
        <time>2026-07-16T07:07:18Z</time>
      </trkpt>
      <trkpt lat="45.36758" lon="5.90648">
        <ele>1532</ele>
        <time>2026-07-16T07:07:30Z</time>
      </trkpt>
      <trkpt lat="45.36761" lon="5.9064">
        <ele>1535</ele>
        <time>2026-07-16T07:07:42Z</time>
      </trkpt>
      <trkpt lat="45.36761" lon="5.90631">
        <ele>1538</ele>
        <time>2026-07-16T07:07:59Z</time>
      </trkpt>
      <trkpt lat="45.36763" lon="5.90627">
        <ele>1541</ele>
        <time>2026-07-16T07:08:11Z</time>
      </trkpt>
      <trkpt lat="45.36758" lon="5.90617">
        <ele>1543</ele>
        <time>2026-07-16T07:08:23Z</time>
      </trkpt>
      <trkpt lat="45.36759" lon="5.90611">
        <ele>1542</ele>
        <time>2026-07-16T07:08:31Z</time>
      </trkpt>
      <trkpt lat="45.36758" lon="5.90608">
        <ele>1549</ele>
        <time>2026-07-16T07:08:54Z</time>
      </trkpt>
      <trkpt lat="45.36765" lon="5.90603">
        <ele>1552</ele>
        <time>2026-07-16T07:09:00Z</time>
      </trkpt>
      <trkpt lat="45.36766" lon="5.90592">
        <ele>1555</ele>
        <time>2026-07-16T07:09:32Z</time>
      </trkpt>
      <trkpt lat="45.36762" lon="5.90587">
        <ele>1555</ele>
        <time>2026-07-16T07:09:44Z</time>
      </trkpt>
      <trkpt lat="45.36758" lon="5.90577">
        <ele>1560</ele>
        <time>2026-07-16T07:10:05Z</time>
      </trkpt>
      <trkpt lat="45.3676" lon="5.90576">
        <ele>1566</ele>
        <time>2026-07-16T07:10:34Z</time>
      </trkpt>
      <trkpt lat="45.36765" lon="5.90572">
        <ele>1567</ele>
        <time>2026-07-16T07:10:48Z</time>
      </trkpt>
      <trkpt lat="45.36769" lon="5.90573">
        <ele>1569</ele>
        <time>2026-07-16T07:11:12Z</time>
      </trkpt>
      <trkpt lat="45.3677" lon="5.90565">
        <ele>1569</ele>
        <time>2026-07-16T07:11:22Z</time>
      </trkpt>
      <trkpt lat="45.36776" lon="5.90558">
        <ele>1570</ele>
        <time>2026-07-16T07:11:31Z</time>
      </trkpt>
      <trkpt lat="45.36778" lon="5.90557">
        <ele>1572</ele>
        <time>2026-07-16T07:15:35Z</time>
      </trkpt>
      <trkpt lat="45.36782" lon="5.9056">
        <ele>1575</ele>
        <time>2026-07-16T07:15:59Z</time>
      </trkpt>
      <trkpt lat="45.36788" lon="5.90558">
        <ele>1576</ele>
        <time>2026-07-16T07:16:22Z</time>
      </trkpt>
      <trkpt lat="45.36793" lon="5.90559">
        <ele>1580</ele>
        <time>2026-07-16T07:17:04Z</time>
      </trkpt>
      <trkpt lat="45.36794" lon="5.90552">
        <ele>1584</ele>
        <time>2026-07-16T07:17:28Z</time>
      </trkpt>
      <trkpt lat="45.36795" lon="5.90546">
        <ele>1588</ele>
        <time>2026-07-16T07:17:52Z</time>
      </trkpt>
      <trkpt lat="45.36798" lon="5.90541">
        <ele>1591</ele>
        <time>2026-07-16T07:18:20Z</time>
      </trkpt>
      <trkpt lat="45.36801" lon="5.90536">
        <ele>1594</ele>
        <time>2026-07-16T07:18:45Z</time>
      </trkpt>
      <trkpt lat="45.36807" lon="5.90535">
        <ele>1597</ele>
        <time>2026-07-16T07:19:03Z</time>
      </trkpt>
      <trkpt lat="45.36811" lon="5.90532">
        <ele>1600</ele>
        <time>2026-07-16T07:19:21Z</time>
      </trkpt>
      <trkpt lat="45.36815" lon="5.90518">
        <ele>1605</ele>
        <time>2026-07-16T07:20:03Z</time>
      </trkpt>
      <trkpt lat="45.36818" lon="5.90513">
        <ele>1606</ele>
        <time>2026-07-16T07:20:25Z</time>
      </trkpt>
      <trkpt lat="45.36821" lon="5.90509">
        <ele>1612</ele>
        <time>2026-07-16T07:21:40Z</time>
      </trkpt>
      <trkpt lat="45.36824" lon="5.90496">
        <ele>1617</ele>
        <time>2026-07-16T07:22:22Z</time>
      </trkpt>
      <trkpt lat="45.36827" lon="5.90493">
        <ele>1622</ele>
        <time>2026-07-16T07:22:57Z</time>
      </trkpt>
      <trkpt lat="45.36834" lon="5.90482">
        <ele>1630</ele>
        <time>2026-07-16T07:23:48Z</time>
      </trkpt>
      <trkpt lat="45.36836" lon="5.90476">
        <ele>1632</ele>
        <time>2026-07-16T07:24:06Z</time>
      </trkpt>
      <trkpt lat="45.36834" lon="5.90468">
        <ele>1633</ele>
        <time>2026-07-16T07:24:19Z</time>
      </trkpt>
      <trkpt lat="45.36834" lon="5.90472">
        <ele>1637</ele>
        <time>2026-07-16T07:24:43Z</time>
      </trkpt>
      <trkpt lat="45.3684" lon="5.90472">
        <ele>1640</ele>
        <time>2026-07-16T07:24:58Z</time>
      </trkpt>
      <trkpt lat="45.36842" lon="5.90468">
        <ele>1647</ele>
        <time>2026-07-16T07:25:13Z</time>
      </trkpt>
      <trkpt lat="45.36841" lon="5.90462">
        <ele>1650</ele>
        <time>2026-07-16T07:25:35Z</time>
      </trkpt>
      <trkpt lat="45.36835" lon="5.90459">
        <ele>1652</ele>
        <time>2026-07-16T07:25:41Z</time>
      </trkpt>
      <trkpt lat="45.36834" lon="5.90452">
        <ele>1652</ele>
        <time>2026-07-16T07:25:55Z</time>
      </trkpt>
      <trkpt lat="45.36829" lon="5.90447">
        <ele>1651</ele>
        <time>2026-07-16T07:26:01Z</time>
      </trkpt>
      <trkpt lat="45.36821" lon="5.90435">
        <ele>1654</ele>
        <time>2026-07-16T07:26:11Z</time>
      </trkpt>
      <trkpt lat="45.36815" lon="5.90429">
        <ele>1656</ele>
        <time>2026-07-16T07:26:19Z</time>
      </trkpt>
      <trkpt lat="45.36822" lon="5.90424">
        <ele>1662</ele>
        <time>2026-07-16T07:26:59Z</time>
      </trkpt>
      <trkpt lat="45.36825" lon="5.90419">
        <ele>1660</ele>
        <time>2026-07-16T07:27:05Z</time>
      </trkpt>
      <trkpt lat="45.36829" lon="5.90416">
        <ele>1660</ele>
        <time>2026-07-16T07:27:12Z</time>
      </trkpt>
      <trkpt lat="45.36833" lon="5.90411">
        <ele>1680</ele>
        <time>2026-07-16T07:28:02Z</time>
      </trkpt>
      <trkpt lat="45.36833" lon="5.90408">
        <ele>1681</ele>
        <time>2026-07-16T07:28:53Z</time>
      </trkpt>
      <trkpt lat="45.3684" lon="5.90412">
        <ele>1681</ele>
        <time>2026-07-16T07:29:25Z</time>
      </trkpt>
      <trkpt lat="45.36843" lon="5.90418">
        <ele>1681</ele>
        <time>2026-07-16T07:29:35Z</time>
      </trkpt>
      <trkpt lat="45.3684" lon="5.90427">
        <ele>1681</ele>
        <time>2026-07-16T07:30:07Z</time>
      </trkpt>
      <trkpt lat="45.36842" lon="5.9042">
        <ele>1674</ele>
        <time>2026-07-16T07:31:59Z</time>
      </trkpt>
      <trkpt lat="45.36838" lon="5.90416">
        <ele>1675</ele>
        <time>2026-07-16T07:32:31Z</time>
      </trkpt>
      <trkpt lat="45.36844" lon="5.90411">
        <ele>1680</ele>
        <time>2026-07-16T07:32:59Z</time>
      </trkpt>
      <trkpt lat="45.36846" lon="5.90415">
        <ele>1687</ele>
        <time>2026-07-16T07:33:24Z</time>
      </trkpt>
      <trkpt lat="45.36839" lon="5.90413">
        <ele>1688</ele>
        <time>2026-07-16T07:33:28Z</time>
      </trkpt>
      <trkpt lat="45.36824" lon="5.90391">
        <ele>1688</ele>
        <time>2026-07-16T07:33:32Z</time>
      </trkpt>
      <trkpt lat="45.36826" lon="5.90404">
        <ele>1689</ele>
        <time>2026-07-16T07:33:41Z</time>
      </trkpt>
      <trkpt lat="45.36841" lon="5.9041">
        <ele>1685</ele>
        <time>2026-07-16T07:33:50Z</time>
      </trkpt>
      <trkpt lat="45.36841" lon="5.90411">
        <ele>1694</ele>
        <time>2026-07-16T07:35:20Z</time>
      </trkpt>
      <trkpt lat="45.36847" lon="5.90414">
        <ele>1692</ele>
        <time>2026-07-16T07:35:31Z</time>
      </trkpt>
      <trkpt lat="45.36846" lon="5.90421">
        <ele>1691</ele>
        <time>2026-07-16T07:35:56Z</time>
      </trkpt>
      <trkpt lat="45.3685" lon="5.90419">
        <ele>1694</ele>
        <time>2026-07-16T07:36:16Z</time>
      </trkpt>
      <trkpt lat="45.36855" lon="5.9042">
        <ele>1693</ele>
        <time>2026-07-16T07:36:41Z</time>
      </trkpt>
      <trkpt lat="45.36857" lon="5.90433">
        <ele>1698</ele>
        <time>2026-07-16T07:37:25Z</time>
      </trkpt>
      <trkpt lat="45.36859" lon="5.90439">
        <ele>1700</ele>
        <time>2026-07-16T07:37:37Z</time>
      </trkpt>
      <trkpt lat="45.36863" lon="5.90436">
        <ele>1703</ele>
        <time>2026-07-16T07:37:58Z</time>
      </trkpt>
      <trkpt lat="45.36866" lon="5.9043">
        <ele>1705</ele>
        <time>2026-07-16T07:38:13Z</time>
      </trkpt>
      <trkpt lat="45.36871" lon="5.90427">
        <ele>1709</ele>
        <time>2026-07-16T07:38:38Z</time>
      </trkpt>
      <trkpt lat="45.36874" lon="5.90432">
        <ele>1710</ele>
        <time>2026-07-16T07:38:53Z</time>
      </trkpt>
      <trkpt lat="45.3688" lon="5.90429">
        <ele>1711</ele>
        <time>2026-07-16T07:39:08Z</time>
      </trkpt>
      <trkpt lat="45.36883" lon="5.90422">
        <ele>1713</ele>
        <time>2026-07-16T07:39:21Z</time>
      </trkpt>
      <trkpt lat="45.36894" lon="5.90419">
        <ele>1715</ele>
        <time>2026-07-16T07:39:30Z</time>
      </trkpt>
      <trkpt lat="45.36889" lon="5.90423">
        <ele>1726</ele>
        <time>2026-07-16T07:40:13Z</time>
      </trkpt>
      <trkpt lat="45.36889" lon="5.9043">
        <ele>1728</ele>
        <time>2026-07-16T07:40:23Z</time>
      </trkpt>
      <trkpt lat="45.36894" lon="5.9043">
        <ele>1731</ele>
        <time>2026-07-16T07:40:43Z</time>
      </trkpt>
      <trkpt lat="45.36899" lon="5.90427">
        <ele>1731</ele>
        <time>2026-07-16T07:41:03Z</time>
      </trkpt>
      <trkpt lat="45.36899" lon="5.9042">
        <ele>1733</ele>
        <time>2026-07-16T07:41:13Z</time>
      </trkpt>
      <trkpt lat="45.36902" lon="5.90416">
        <ele>1735</ele>
        <time>2026-07-16T07:42:06Z</time>
      </trkpt>
      <trkpt lat="45.36904" lon="5.90422">
        <ele>1738</ele>
        <time>2026-07-16T07:42:36Z</time>
      </trkpt>
      <trkpt lat="45.36905" lon="5.90422">
        <ele>1742</ele>
        <time>2026-07-16T07:43:37Z</time>
      </trkpt>
      <trkpt lat="45.36904" lon="5.90429">
        <ele>1740</ele>
        <time>2026-07-16T07:44:02Z</time>
      </trkpt>
      <trkpt lat="45.36903" lon="5.90428">
        <ele>1740</ele>
        <time>2026-07-16T07:44:38Z</time>
      </trkpt>
      <trkpt lat="45.36902" lon="5.90439">
        <ele>1741</ele>
        <time>2026-07-16T07:45:48Z</time>
      </trkpt>
      <trkpt lat="45.36895" lon="5.9042">
        <ele>1734</ele>
        <time>2026-07-16T07:45:56Z</time>
      </trkpt>
      <trkpt lat="45.36911" lon="5.90422">
        <ele>1732</ele>
        <time>2026-07-16T07:46:03Z</time>
      </trkpt>
      <trkpt lat="45.36907" lon="5.90426">
        <ele>1741</ele>
        <time>2026-07-16T07:55:48Z</time>
      </trkpt>
      <trkpt lat="45.36908" lon="5.90423">
        <ele>1747</ele>
        <time>2026-07-16T07:57:22Z</time>
      </trkpt>
      <trkpt lat="45.36913" lon="5.90426">
        <ele>1745</ele>
        <time>2026-07-16T07:57:57Z</time>
      </trkpt>
      <trkpt lat="45.36908" lon="5.90433">
        <ele>1741</ele>
        <time>2026-07-16T07:59:59Z</time>
      </trkpt>
      <trkpt lat="45.36907" lon="5.90424">
        <ele>1745</ele>
        <time>2026-07-16T08:00:42Z</time>
      </trkpt>
      <trkpt lat="45.36908" lon="5.90427">
        <ele>1744</ele>
        <time>2026-07-16T08:01:37Z</time>
      </trkpt>
      <trkpt lat="45.3691" lon="5.90414">
        <ele>1739</ele>
        <time>2026-07-16T08:02:06Z</time>
      </trkpt>
      <trkpt lat="45.3691" lon="5.90404">
        <ele>1737</ele>
        <time>2026-07-16T08:02:14Z</time>
      </trkpt>
      <trkpt lat="45.36903" lon="5.90399">
        <ele>1737</ele>
        <time>2026-07-16T08:02:23Z</time>
      </trkpt>
      <trkpt lat="45.36901" lon="5.90392">
        <ele>1737</ele>
        <time>2026-07-16T08:02:31Z</time>
      </trkpt>
      <trkpt lat="45.36899" lon="5.90382">
        <ele>1735</ele>
        <time>2026-07-16T08:02:52Z</time>
      </trkpt>
      <trkpt lat="45.369" lon="5.90371">
        <ele>1743</ele>
        <time>2026-07-16T08:03:48Z</time>
      </trkpt>
      <trkpt lat="45.36902" lon="5.90361">
        <ele>1749</ele>
        <time>2026-07-16T08:04:14Z</time>
      </trkpt>
      <trkpt lat="45.36904" lon="5.90354">
        <ele>1750</ele>
        <time>2026-07-16T08:04:25Z</time>
      </trkpt>
      <trkpt lat="45.36903" lon="5.90345">
        <ele>1750</ele>
        <time>2026-07-16T08:04:40Z</time>
      </trkpt>
      <trkpt lat="45.36902" lon="5.90337">
        <ele>1758</ele>
        <time>2026-07-16T08:05:15Z</time>
      </trkpt>
      <trkpt lat="45.36903" lon="5.9033">
        <ele>1759</ele>
        <time>2026-07-16T08:05:40Z</time>
      </trkpt>
      <trkpt lat="45.369" lon="5.90322">
        <ele>1760</ele>
        <time>2026-07-16T08:05:55Z</time>
      </trkpt>
      <trkpt lat="45.36896" lon="5.9031">
        <ele>1764</ele>
        <time>2026-07-16T08:06:46Z</time>
      </trkpt>
      <trkpt lat="45.36892" lon="5.90309">
        <ele>1769</ele>
        <time>2026-07-16T08:07:02Z</time>
      </trkpt>
      <trkpt lat="45.36891" lon="5.90299">
        <ele>1768</ele>
        <time>2026-07-16T08:07:14Z</time>
      </trkpt>
      <trkpt lat="45.36888" lon="5.90296">
        <ele>1780</ele>
        <time>2026-07-16T08:08:11Z</time>
      </trkpt>
      <trkpt lat="45.36884" lon="5.90295">
        <ele>1784</ele>
        <time>2026-07-16T08:09:06Z</time>
      </trkpt>
      <trkpt lat="45.36879" lon="5.90295">
        <ele>1784</ele>
        <time>2026-07-16T08:09:18Z</time>
      </trkpt>
      <trkpt lat="45.36878" lon="5.90289">
        <ele>1782</ele>
        <time>2026-07-16T08:09:48Z</time>
      </trkpt>
      <trkpt lat="45.36869" lon="5.9029">
        <ele>1783</ele>
        <time>2026-07-16T08:10:23Z</time>
      </trkpt>
      <trkpt lat="45.36864" lon="5.90285">
        <ele>1782</ele>
        <time>2026-07-16T08:10:30Z</time>
      </trkpt>
      <trkpt lat="45.36859" lon="5.9028">
        <ele>1782</ele>
        <time>2026-07-16T08:10:44Z</time>
      </trkpt>
      <trkpt lat="45.36854" lon="5.90277">
        <ele>1783</ele>
        <time>2026-07-16T08:10:55Z</time>
      </trkpt>
      <trkpt lat="45.36848" lon="5.90278">
        <ele>1784</ele>
        <time>2026-07-16T08:11:05Z</time>
      </trkpt>
      <trkpt lat="45.36843" lon="5.90281">
        <ele>1785</ele>
        <time>2026-07-16T08:11:20Z</time>
      </trkpt>
      <trkpt lat="45.36838" lon="5.9028">
        <ele>1785</ele>
        <time>2026-07-16T08:11:44Z</time>
      </trkpt>
      <trkpt lat="45.36834" lon="5.90275">
        <ele>1783</ele>
        <time>2026-07-16T08:12:44Z</time>
      </trkpt>
      <trkpt lat="45.36828" lon="5.90271">
        <ele>1781</ele>
        <time>2026-07-16T08:13:04Z</time>
      </trkpt>
      <trkpt lat="45.36824" lon="5.90264">
        <ele>1781</ele>
        <time>2026-07-16T08:13:13Z</time>
      </trkpt>
      <trkpt lat="45.36823" lon="5.90258">
        <ele>1786</ele>
        <time>2026-07-16T08:13:32Z</time>
      </trkpt>
      <trkpt lat="45.3683" lon="5.90262">
        <ele>1798</ele>
        <time>2026-07-16T08:13:57Z</time>
      </trkpt>
      <trkpt lat="45.36829" lon="5.90256">
        <ele>1804</ele>
        <time>2026-07-16T08:14:27Z</time>
      </trkpt>
      <trkpt lat="45.36827" lon="5.9025">
        <ele>1806</ele>
        <time>2026-07-16T08:15:13Z</time>
      </trkpt>
      <trkpt lat="45.36825" lon="5.90243">
        <ele>1802</ele>
        <time>2026-07-16T08:15:38Z</time>
      </trkpt>
      <trkpt lat="45.36823" lon="5.90236">
        <ele>1800</ele>
        <time>2026-07-16T08:15:53Z</time>
      </trkpt>
      <trkpt lat="45.36826" lon="5.90214">
        <ele>1812</ele>
        <time>2026-07-16T08:17:11Z</time>
      </trkpt>
      <trkpt lat="45.36829" lon="5.902">
        <ele>1815</ele>
        <time>2026-07-16T08:17:29Z</time>
      </trkpt>
      <trkpt lat="45.36815" lon="5.90205">
        <ele>1814</ele>
        <time>2026-07-16T08:17:41Z</time>
      </trkpt>
      <trkpt lat="45.36813" lon="5.90235">
        <ele>1823</ele>
        <time>2026-07-16T08:18:55Z</time>
      </trkpt>
      <trkpt lat="45.3681" lon="5.90242">
        <ele>1834</ele>
        <time>2026-07-16T08:20:52Z</time>
      </trkpt>
      <trkpt lat="45.36809" lon="5.90249">
        <ele>1834</ele>
        <time>2026-07-16T08:20:56Z</time>
      </trkpt>
      <trkpt lat="45.36803" lon="5.90258">
        <ele>1827</ele>
        <time>2026-07-16T08:21:37Z</time>
      </trkpt>
      <trkpt lat="45.36809" lon="5.90284">
        <ele>1828</ele>
        <time>2026-07-16T08:21:44Z</time>
      </trkpt>
      <trkpt lat="45.36806" lon="5.90268">
        <ele>1829</ele>
        <time>2026-07-16T08:21:55Z</time>
      </trkpt>
      <trkpt lat="45.36802" lon="5.90255">
        <ele>1827</ele>
        <time>2026-07-16T08:21:57Z</time>
      </trkpt>
      <trkpt lat="45.36792" lon="5.90256">
        <ele>1822</ele>
        <time>2026-07-16T08:22:50Z</time>
      </trkpt>
      <trkpt lat="45.36791" lon="5.90246">
        <ele>1823</ele>
        <time>2026-07-16T08:22:58Z</time>
      </trkpt>
      <trkpt lat="45.36783" lon="5.90238">
        <ele>1825</ele>
        <time>2026-07-16T08:23:11Z</time>
      </trkpt>
      <trkpt lat="45.36779" lon="5.90232">
        <ele>1824</ele>
        <time>2026-07-16T08:23:18Z</time>
      </trkpt>
      <trkpt lat="45.36774" lon="5.90233">
        <ele>1826</ele>
        <time>2026-07-16T08:23:23Z</time>
      </trkpt>
      <trkpt lat="45.3677" lon="5.90228">
        <ele>1827</ele>
        <time>2026-07-16T08:23:28Z</time>
      </trkpt>
      <trkpt lat="45.36763" lon="5.90227">
        <ele>1827</ele>
        <time>2026-07-16T08:23:33Z</time>
      </trkpt>
      <trkpt lat="45.3676" lon="5.90221">
        <ele>1827</ele>
        <time>2026-07-16T08:23:38Z</time>
      </trkpt>
      <trkpt lat="45.36754" lon="5.9022">
        <ele>1826</ele>
        <time>2026-07-16T08:23:45Z</time>
      </trkpt>
      <trkpt lat="45.36748" lon="5.90211">
        <ele>1823</ele>
        <time>2026-07-16T08:23:55Z</time>
      </trkpt>
      <trkpt lat="45.36739" lon="5.90201">
        <ele>1819</ele>
        <time>2026-07-16T08:24:08Z</time>
      </trkpt>
      <trkpt lat="45.36735" lon="5.902">
        <ele>1817</ele>
        <time>2026-07-16T08:24:13Z</time>
      </trkpt>
      <trkpt lat="45.36729" lon="5.90205">
        <ele>1821</ele>
        <time>2026-07-16T08:24:16Z</time>
      </trkpt>
      <trkpt lat="45.36725" lon="5.9021">
        <ele>1824</ele>
        <time>2026-07-16T08:24:21Z</time>
      </trkpt>
      <trkpt lat="45.36721" lon="5.90203">
        <ele>1829</ele>
        <time>2026-07-16T08:24:29Z</time>
      </trkpt>
      <trkpt lat="45.36717" lon="5.90208">
        <ele>1830</ele>
        <time>2026-07-16T08:24:34Z</time>
      </trkpt>
      <trkpt lat="45.36712" lon="5.90208">
        <ele>1833</ele>
        <time>2026-07-16T08:24:42Z</time>
      </trkpt>
      <trkpt lat="45.36705" lon="5.90205">
        <ele>1836</ele>
        <time>2026-07-16T08:24:49Z</time>
      </trkpt>
      <trkpt lat="45.36698" lon="5.90211">
        <ele>1837</ele>
        <time>2026-07-16T08:25:00Z</time>
      </trkpt>
      <trkpt lat="45.36693" lon="5.90219">
        <ele>1838</ele>
        <time>2026-07-16T08:25:05Z</time>
      </trkpt>
      <trkpt lat="45.36688" lon="5.90223">
        <ele>1834</ele>
        <time>2026-07-16T08:25:19Z</time>
      </trkpt>
      <trkpt lat="45.36682" lon="5.9022">
        <ele>1834</ele>
        <time>2026-07-16T08:25:28Z</time>
      </trkpt>
      <trkpt lat="45.3668" lon="5.9022">
        <ele>1838</ele>
        <time>2026-07-16T08:27:49Z</time>
      </trkpt>
      <trkpt lat="45.36671" lon="5.90217">
        <ele>1838</ele>
        <time>2026-07-16T08:28:24Z</time>
      </trkpt>
      <trkpt lat="45.36666" lon="5.90217">
        <ele>1841</ele>
        <time>2026-07-16T08:28:32Z</time>
      </trkpt>
      <trkpt lat="45.36661" lon="5.90224">
        <ele>1845</ele>
        <time>2026-07-16T08:28:43Z</time>
      </trkpt>
      <trkpt lat="45.36655" lon="5.90229">
        <ele>1846</ele>
        <time>2026-07-16T08:28:49Z</time>
      </trkpt>
      <trkpt lat="45.36652" lon="5.90233">
        <ele>1845</ele>
        <time>2026-07-16T08:28:56Z</time>
      </trkpt>
      <trkpt lat="45.3664" lon="5.90248">
        <ele>1845</ele>
        <time>2026-07-16T08:29:21Z</time>
      </trkpt>
      <trkpt lat="45.36627" lon="5.90238">
        <ele>1844</ele>
        <time>2026-07-16T08:29:41Z</time>
      </trkpt>
      <trkpt lat="45.36621" lon="5.90247">
        <ele>1845</ele>
        <time>2026-07-16T08:29:53Z</time>
      </trkpt>
      <trkpt lat="45.36608" lon="5.9025">
        <ele>1849</ele>
        <time>2026-07-16T08:30:16Z</time>
      </trkpt>
      <trkpt lat="45.36603" lon="5.90254">
        <ele>1851</ele>
        <time>2026-07-16T08:30:22Z</time>
      </trkpt>
      <trkpt lat="45.36602" lon="5.90262">
        <ele>1852</ele>
        <time>2026-07-16T08:30:28Z</time>
      </trkpt>
      <trkpt lat="45.36592" lon="5.90266">
        <ele>1852</ele>
        <time>2026-07-16T08:30:40Z</time>
      </trkpt>
      <trkpt lat="45.36587" lon="5.90264">
        <ele>1853</ele>
        <time>2026-07-16T08:30:45Z</time>
      </trkpt>
      <trkpt lat="45.36583" lon="5.90271">
        <ele>1854</ele>
        <time>2026-07-16T08:30:54Z</time>
      </trkpt>
      <trkpt lat="45.36575" lon="5.90272">
        <ele>1855</ele>
        <time>2026-07-16T08:31:05Z</time>
      </trkpt>
      <trkpt lat="45.3657" lon="5.9028">
        <ele>1856</ele>
        <time>2026-07-16T08:31:11Z</time>
      </trkpt>
      <trkpt lat="45.3656" lon="5.9028">
        <ele>1858</ele>
        <time>2026-07-16T08:31:30Z</time>
      </trkpt>
      <trkpt lat="45.36549" lon="5.90286">
        <ele>1862</ele>
        <time>2026-07-16T08:31:51Z</time>
      </trkpt>
      <trkpt lat="45.36538" lon="5.90281">
        <ele>1863</ele>
        <time>2026-07-16T08:32:15Z</time>
      </trkpt>
      <trkpt lat="45.36539" lon="5.90308">
        <ele>1867</ele>
        <time>2026-07-16T08:32:37Z</time>
      </trkpt>
      <trkpt lat="45.36524" lon="5.90311">
        <ele>1873</ele>
        <time>2026-07-16T08:33:14Z</time>
      </trkpt>
      <trkpt lat="45.36522" lon="5.90342">
        <ele>1881</ele>
        <time>2026-07-16T08:33:42Z</time>
      </trkpt>
      <trkpt lat="45.3652" lon="5.9035">
        <ele>1883</ele>
        <time>2026-07-16T08:33:58Z</time>
      </trkpt>
      <trkpt lat="45.36518" lon="5.90355">
        <ele>1883</ele>
        <time>2026-07-16T08:34:23Z</time>
      </trkpt>
      <trkpt lat="45.36514" lon="5.90358">
        <ele>1884</ele>
        <time>2026-07-16T08:35:43Z</time>
      </trkpt>
      <trkpt lat="45.36511" lon="5.90364">
        <ele>1884</ele>
        <time>2026-07-16T08:35:59Z</time>
      </trkpt>
      <trkpt lat="45.36503" lon="5.90363">
        <ele>1886</ele>
        <time>2026-07-16T08:36:14Z</time>
      </trkpt>
      <trkpt lat="45.36498" lon="5.90367">
        <ele>1885</ele>
        <time>2026-07-16T08:36:24Z</time>
      </trkpt>
      <trkpt lat="45.36499" lon="5.90358">
        <ele>1885</ele>
        <time>2026-07-16T08:36:34Z</time>
      </trkpt>
      <trkpt lat="45.365" lon="5.90351">
        <ele>1881</ele>
        <time>2026-07-16T08:37:04Z</time>
      </trkpt>
      <trkpt lat="45.36502" lon="5.90344">
        <ele>1871</ele>
        <time>2026-07-16T08:37:19Z</time>
      </trkpt>
      <trkpt lat="45.365" lon="5.90338">
        <ele>1871</ele>
        <time>2026-07-16T08:37:29Z</time>
      </trkpt>
      <trkpt lat="45.365" lon="5.90332">
        <ele>1868</ele>
        <time>2026-07-16T08:37:39Z</time>
      </trkpt>
      <trkpt lat="45.36498" lon="5.90326">
        <ele>1870</ele>
        <time>2026-07-16T08:37:50Z</time>
      </trkpt>
      <trkpt lat="45.36503" lon="5.90318">
        <ele>1868</ele>
        <time>2026-07-16T08:38:00Z</time>
      </trkpt>
      <trkpt lat="45.36504" lon="5.90306">
        <ele>1865</ele>
        <time>2026-07-16T08:38:13Z</time>
      </trkpt>
      <trkpt lat="45.36499" lon="5.90306">
        <ele>1864</ele>
        <time>2026-07-16T08:38:16Z</time>
      </trkpt>
      <trkpt lat="45.36497" lon="5.90297">
        <ele>1863</ele>
        <time>2026-07-16T08:38:34Z</time>
      </trkpt>
      <trkpt lat="45.36498" lon="5.90289">
        <ele>1861</ele>
        <time>2026-07-16T08:38:44Z</time>
      </trkpt>
      <trkpt lat="45.36496" lon="5.9028">
        <ele>1861</ele>
        <time>2026-07-16T08:38:54Z</time>
      </trkpt>
      <trkpt lat="45.36501" lon="5.90275">
        <ele>1859</ele>
        <time>2026-07-16T08:39:11Z</time>
      </trkpt>
      <trkpt lat="45.36496" lon="5.90247">
        <ele>1854</ele>
        <time>2026-07-16T08:39:57Z</time>
      </trkpt>
      <trkpt lat="45.36484" lon="5.90243">
        <ele>1854</ele>
        <time>2026-07-16T08:40:05Z</time>
      </trkpt>
      <trkpt lat="45.36491" lon="5.90231">
        <ele>1854</ele>
        <time>2026-07-16T08:40:16Z</time>
      </trkpt>
      <trkpt lat="45.36483" lon="5.90227">
        <ele>1852</ele>
        <time>2026-07-16T08:40:26Z</time>
      </trkpt>
      <trkpt lat="45.36478" lon="5.90224">
        <ele>1850</ele>
        <time>2026-07-16T08:40:31Z</time>
      </trkpt>
      <trkpt lat="45.36476" lon="5.90215">
        <ele>1849</ele>
        <time>2026-07-16T08:40:38Z</time>
      </trkpt>
      <trkpt lat="45.3647" lon="5.9021">
        <ele>1848</ele>
        <time>2026-07-16T08:40:44Z</time>
      </trkpt>
      <trkpt lat="45.36469" lon="5.90202">
        <ele>1847</ele>
        <time>2026-07-16T08:40:49Z</time>
      </trkpt>
      <trkpt lat="45.36463" lon="5.90204">
        <ele>1850</ele>
        <time>2026-07-16T08:40:55Z</time>
      </trkpt>
      <trkpt lat="45.36452" lon="5.90203">
        <ele>1850</ele>
        <time>2026-07-16T08:41:09Z</time>
      </trkpt>
      <trkpt lat="45.36449" lon="5.9021">
        <ele>1852</ele>
        <time>2026-07-16T08:41:20Z</time>
      </trkpt>
      <trkpt lat="45.36447" lon="5.90218">
        <ele>1855</ele>
        <time>2026-07-16T08:41:29Z</time>
      </trkpt>
      <trkpt lat="45.36446" lon="5.90222">
        <ele>1859</ele>
        <time>2026-07-16T08:41:44Z</time>
      </trkpt>
      <trkpt lat="45.36451" lon="5.90224">
        <ele>1853</ele>
        <time>2026-07-16T08:42:04Z</time>
      </trkpt>
      <trkpt lat="45.36449" lon="5.90216">
        <ele>1855</ele>
        <time>2026-07-16T08:42:18Z</time>
      </trkpt>
      <trkpt lat="45.36447" lon="5.90203">
        <ele>1848</ele>
        <time>2026-07-16T08:42:29Z</time>
      </trkpt>
      <trkpt lat="45.36444" lon="5.90186">
        <ele>1843</ele>
        <time>2026-07-16T08:42:36Z</time>
      </trkpt>
      <trkpt lat="45.36437" lon="5.90183">
        <ele>1841</ele>
        <time>2026-07-16T08:42:55Z</time>
      </trkpt>
      <trkpt lat="45.3643" lon="5.90182">
        <ele>1846</ele>
        <time>2026-07-16T08:43:10Z</time>
      </trkpt>
      <trkpt lat="45.36427" lon="5.90176">
        <ele>1845</ele>
        <time>2026-07-16T08:43:16Z</time>
      </trkpt>
      <trkpt lat="45.36424" lon="5.9017">
        <ele>1844</ele>
        <time>2026-07-16T08:43:20Z</time>
      </trkpt>
      <trkpt lat="45.36419" lon="5.90178">
        <ele>1846</ele>
        <time>2026-07-16T08:43:25Z</time>
      </trkpt>
      <trkpt lat="45.36415" lon="5.90182">
        <ele>1847</ele>
        <time>2026-07-16T08:43:28Z</time>
      </trkpt>
      <trkpt lat="45.36408" lon="5.90187">
        <ele>1850</ele>
        <time>2026-07-16T08:43:40Z</time>
      </trkpt>
      <trkpt lat="45.36403" lon="5.90192">
        <ele>1852</ele>
        <time>2026-07-16T08:43:52Z</time>
      </trkpt>
      <trkpt lat="45.364" lon="5.90196">
        <ele>1852</ele>
        <time>2026-07-16T08:44:08Z</time>
      </trkpt>
      <trkpt lat="45.36396" lon="5.90192">
        <ele>1850</ele>
        <time>2026-07-16T08:44:19Z</time>
      </trkpt>
      <trkpt lat="45.36391" lon="5.90188">
        <ele>1849</ele>
        <time>2026-07-16T08:44:31Z</time>
      </trkpt>
      <trkpt lat="45.36387" lon="5.90183">
        <ele>1848</ele>
        <time>2026-07-16T08:44:37Z</time>
      </trkpt>
      <trkpt lat="45.36382" lon="5.90188">
        <ele>1849</ele>
        <time>2026-07-16T08:44:43Z</time>
      </trkpt>
      <trkpt lat="45.36377" lon="5.90194">
        <ele>1853</ele>
        <time>2026-07-16T08:44:48Z</time>
      </trkpt>
      <trkpt lat="45.36368" lon="5.90197">
        <ele>1858</ele>
        <time>2026-07-16T08:45:01Z</time>
      </trkpt>
      <trkpt lat="45.36362" lon="5.90197">
        <ele>1857</ele>
        <time>2026-07-16T08:45:47Z</time>
      </trkpt>
      <trkpt lat="45.36359" lon="5.90202">
        <ele>1857</ele>
        <time>2026-07-16T08:45:57Z</time>
      </trkpt>
      <trkpt lat="45.36355" lon="5.90206">
        <ele>1857</ele>
        <time>2026-07-16T08:46:07Z</time>
      </trkpt>
      <trkpt lat="45.36349" lon="5.9021">
        <ele>1858</ele>
        <time>2026-07-16T08:46:23Z</time>
      </trkpt>
      <trkpt lat="45.36346" lon="5.90214">
        <ele>1857</ele>
        <time>2026-07-16T08:46:44Z</time>
      </trkpt>
      <trkpt lat="45.36338" lon="5.90212">
        <ele>1859</ele>
        <time>2026-07-16T08:46:59Z</time>
      </trkpt>
      <trkpt lat="45.36335" lon="5.90216">
        <ele>1862</ele>
        <time>2026-07-16T08:47:04Z</time>
      </trkpt>
      <trkpt lat="45.36333" lon="5.90223">
        <ele>1865</ele>
        <time>2026-07-16T08:47:10Z</time>
      </trkpt>
      <trkpt lat="45.3633" lon="5.90231">
        <ele>1867</ele>
        <time>2026-07-16T08:47:22Z</time>
      </trkpt>
      <trkpt lat="45.36321" lon="5.90246">
        <ele>1869</ele>
        <time>2026-07-16T08:47:56Z</time>
      </trkpt>
      <trkpt lat="45.36317" lon="5.90229">
        <ele>1870</ele>
        <time>2026-07-16T08:48:18Z</time>
      </trkpt>
      <trkpt lat="45.36312" lon="5.90235">
        <ele>1869</ele>
        <time>2026-07-16T08:48:38Z</time>
      </trkpt>
      <trkpt lat="45.36311" lon="5.90234">
        <ele>1867</ele>
        <time>2026-07-16T08:48:47Z</time>
      </trkpt>
      <trkpt lat="45.36308" lon="5.90228">
        <ele>1862</ele>
        <time>2026-07-16T08:49:04Z</time>
      </trkpt>
      <trkpt lat="45.36305" lon="5.90233">
        <ele>1865</ele>
        <time>2026-07-16T08:49:11Z</time>
      </trkpt>
      <trkpt lat="45.36302" lon="5.90235">
        <ele>1867</ele>
        <time>2026-07-16T08:51:14Z</time>
      </trkpt>
      <trkpt lat="45.363" lon="5.90228">
        <ele>1865</ele>
        <time>2026-07-16T08:51:29Z</time>
      </trkpt>
      <trkpt lat="45.36299" lon="5.9022">
        <ele>1864</ele>
        <time>2026-07-16T08:51:39Z</time>
      </trkpt>
      <trkpt lat="45.36302" lon="5.90207">
        <ele>1862</ele>
        <time>2026-07-16T08:51:52Z</time>
      </trkpt>
      <trkpt lat="45.36295" lon="5.9019">
        <ele>1865</ele>
        <time>2026-07-16T08:52:07Z</time>
      </trkpt>
      <trkpt lat="45.36293" lon="5.90185">
        <ele>1865</ele>
        <time>2026-07-16T08:52:11Z</time>
      </trkpt>
      <trkpt lat="45.36292" lon="5.90177">
        <ele>1862</ele>
        <time>2026-07-16T08:52:22Z</time>
      </trkpt>
      <trkpt lat="45.36293" lon="5.90169">
        <ele>1858</ele>
        <time>2026-07-16T08:52:32Z</time>
      </trkpt>
      <trkpt lat="45.3629" lon="5.90159">
        <ele>1859</ele>
        <time>2026-07-16T08:52:44Z</time>
      </trkpt>
      <trkpt lat="45.36286" lon="5.90148">
        <ele>1856</ele>
        <time>2026-07-16T08:52:54Z</time>
      </trkpt>
      <trkpt lat="45.36282" lon="5.90141">
        <ele>1852</ele>
        <time>2026-07-16T08:53:02Z</time>
      </trkpt>
      <trkpt lat="45.36281" lon="5.90135">
        <ele>1851</ele>
        <time>2026-07-16T08:53:09Z</time>
      </trkpt>
      <trkpt lat="45.36272" lon="5.90125">
        <ele>1846</ele>
        <time>2026-07-16T08:53:39Z</time>
      </trkpt>
      <trkpt lat="45.36268" lon="5.9012">
        <ele>1844</ele>
        <time>2026-07-16T08:53:45Z</time>
      </trkpt>
      <trkpt lat="45.36266" lon="5.90113">
        <ele>1843</ele>
        <time>2026-07-16T08:53:57Z</time>
      </trkpt>
      <trkpt lat="45.36266" lon="5.90105">
        <ele>1844</ele>
        <time>2026-07-16T08:54:02Z</time>
      </trkpt>
      <trkpt lat="45.36257" lon="5.90092">
        <ele>1846</ele>
        <time>2026-07-16T08:54:17Z</time>
      </trkpt>
      <trkpt lat="45.36252" lon="5.90089">
        <ele>1846</ele>
        <time>2026-07-16T08:54:21Z</time>
      </trkpt>
      <trkpt lat="45.36248" lon="5.90089">
        <ele>1847</ele>
        <time>2026-07-16T08:54:26Z</time>
      </trkpt>
      <trkpt lat="45.36235" lon="5.90087">
        <ele>1845</ele>
        <time>2026-07-16T08:54:53Z</time>
      </trkpt>
      <trkpt lat="45.3623" lon="5.90081">
        <ele>1844</ele>
        <time>2026-07-16T08:54:59Z</time>
      </trkpt>
      <trkpt lat="45.36226" lon="5.90079">
        <ele>1843</ele>
        <time>2026-07-16T08:55:09Z</time>
      </trkpt>
      <trkpt lat="45.36221" lon="5.90075">
        <ele>1844</ele>
        <time>2026-07-16T08:55:19Z</time>
      </trkpt>
      <trkpt lat="45.3621" lon="5.90069">
        <ele>1838</ele>
        <time>2026-07-16T08:55:34Z</time>
      </trkpt>
      <trkpt lat="45.36206" lon="5.90071">
        <ele>1839</ele>
        <time>2026-07-16T08:55:38Z</time>
      </trkpt>
      <trkpt lat="45.36201" lon="5.90074">
        <ele>1841</ele>
        <time>2026-07-16T08:55:43Z</time>
      </trkpt>
      <trkpt lat="45.36198" lon="5.9007">
        <ele>1846</ele>
        <time>2026-07-16T08:56:00Z</time>
      </trkpt>
      <trkpt lat="45.36192" lon="5.90072">
        <ele>1845</ele>
        <time>2026-07-16T08:56:20Z</time>
      </trkpt>
      <trkpt lat="45.36194" lon="5.90062">
        <ele>1842</ele>
        <time>2026-07-16T08:56:31Z</time>
      </trkpt>
      <trkpt lat="45.36194" lon="5.90054">
        <ele>1839</ele>
        <time>2026-07-16T08:56:39Z</time>
      </trkpt>
      <trkpt lat="45.36193" lon="5.90039">
        <ele>1836</ele>
        <time>2026-07-16T08:56:51Z</time>
      </trkpt>
      <trkpt lat="45.3619" lon="5.90025">
        <ele>1834</ele>
        <time>2026-07-16T08:57:05Z</time>
      </trkpt>
      <trkpt lat="45.36184" lon="5.9002">
        <ele>1835</ele>
        <time>2026-07-16T08:57:12Z</time>
      </trkpt>
      <trkpt lat="45.3618" lon="5.90015">
        <ele>1833</ele>
        <time>2026-07-16T08:57:19Z</time>
      </trkpt>
      <trkpt lat="45.36178" lon="5.9001">
        <ele>1832</ele>
        <time>2026-07-16T08:57:25Z</time>
      </trkpt>
      <trkpt lat="45.36174" lon="5.90005">
        <ele>1832</ele>
        <time>2026-07-16T08:57:30Z</time>
      </trkpt>
      <trkpt lat="45.36168" lon="5.90002">
        <ele>1831</ele>
        <time>2026-07-16T08:57:39Z</time>
      </trkpt>
      <trkpt lat="45.36166" lon="5.89997">
        <ele>1829</ele>
        <time>2026-07-16T08:57:44Z</time>
      </trkpt>
      <trkpt lat="45.36162" lon="5.89993">
        <ele>1828</ele>
        <time>2026-07-16T08:57:48Z</time>
      </trkpt>
      <trkpt lat="45.36157" lon="5.89988">
        <ele>1829</ele>
        <time>2026-07-16T08:57:55Z</time>
      </trkpt>
      <trkpt lat="45.36153" lon="5.89983">
        <ele>1830</ele>
        <time>2026-07-16T08:58:02Z</time>
      </trkpt>
      <trkpt lat="45.36149" lon="5.89968">
        <ele>1825</ele>
        <time>2026-07-16T08:58:13Z</time>
      </trkpt>
      <trkpt lat="45.36146" lon="5.89964">
        <ele>1825</ele>
        <time>2026-07-16T08:58:17Z</time>
      </trkpt>
      <trkpt lat="45.3614" lon="5.89962">
        <ele>1827</ele>
        <time>2026-07-16T08:58:20Z</time>
      </trkpt>
      <trkpt lat="45.36135" lon="5.89962">
        <ele>1829</ele>
        <time>2026-07-16T08:58:38Z</time>
      </trkpt>
      <trkpt lat="45.3613" lon="5.89956">
        <ele>1831</ele>
        <time>2026-07-16T08:58:41Z</time>
      </trkpt>
      <trkpt lat="45.36125" lon="5.89962">
        <ele>1833</ele>
        <time>2026-07-16T08:58:45Z</time>
      </trkpt>
      <trkpt lat="45.36104" lon="5.89952">
        <ele>1828</ele>
        <time>2026-07-16T08:59:11Z</time>
      </trkpt>
      <trkpt lat="45.36102" lon="5.89943">
        <ele>1828</ele>
        <time>2026-07-16T08:59:18Z</time>
      </trkpt>
      <trkpt lat="45.36106" lon="5.89941">
        <ele>1824</ele>
        <time>2026-07-16T08:59:42Z</time>
      </trkpt>
      <trkpt lat="45.36112" lon="5.89947">
        <ele>1824</ele>
        <time>2026-07-16T08:59:52Z</time>
      </trkpt>
      <trkpt lat="45.36106" lon="5.89951">
        <ele>1821</ele>
        <time>2026-07-16T09:00:03Z</time>
      </trkpt>
      <trkpt lat="45.361" lon="5.89952">
        <ele>1819</ele>
        <time>2026-07-16T09:00:13Z</time>
      </trkpt>
      <trkpt lat="45.36095" lon="5.89956">
        <ele>1817</ele>
        <time>2026-07-16T09:00:20Z</time>
      </trkpt>
      <trkpt lat="45.36092" lon="5.89953">
        <ele>1810</ele>
        <time>2026-07-16T09:00:45Z</time>
      </trkpt>
      <trkpt lat="45.36087" lon="5.89943">
        <ele>1809</ele>
        <time>2026-07-16T09:01:01Z</time>
      </trkpt>
      <trkpt lat="45.36082" lon="5.89937">
        <ele>1808</ele>
        <time>2026-07-16T09:01:14Z</time>
      </trkpt>
      <trkpt lat="45.36078" lon="5.89944">
        <ele>1807</ele>
        <time>2026-07-16T09:01:23Z</time>
      </trkpt>
      <trkpt lat="45.36074" lon="5.89942">
        <ele>1802</ele>
        <time>2026-07-16T09:01:43Z</time>
      </trkpt>
      <trkpt lat="45.36073" lon="5.89932">
        <ele>1798</ele>
        <time>2026-07-16T09:02:00Z</time>
      </trkpt>
      <trkpt lat="45.36075" lon="5.89924">
        <ele>1795</ele>
        <time>2026-07-16T09:02:12Z</time>
      </trkpt>
      <trkpt lat="45.36071" lon="5.89927">
        <ele>1794</ele>
        <time>2026-07-16T09:02:20Z</time>
      </trkpt>
      <trkpt lat="45.36063" lon="5.89921">
        <ele>1796</ele>
        <time>2026-07-16T09:02:32Z</time>
      </trkpt>
      <trkpt lat="45.36058" lon="5.89923">
        <ele>1799</ele>
        <time>2026-07-16T09:02:38Z</time>
      </trkpt>
      <trkpt lat="45.36053" lon="5.89929">
        <ele>1798</ele>
        <time>2026-07-16T09:02:45Z</time>
      </trkpt>
      <trkpt lat="45.36048" lon="5.89929">
        <ele>1799</ele>
        <time>2026-07-16T09:02:52Z</time>
      </trkpt>
      <trkpt lat="45.36041" lon="5.89912">
        <ele>1794</ele>
        <time>2026-07-16T09:03:08Z</time>
      </trkpt>
      <trkpt lat="45.36036" lon="5.8991">
        <ele>1793</ele>
        <time>2026-07-16T09:03:29Z</time>
      </trkpt>
      <trkpt lat="45.3603" lon="5.89909">
        <ele>1793</ele>
        <time>2026-07-16T09:03:33Z</time>
      </trkpt>
      <trkpt lat="45.36025" lon="5.89911">
        <ele>1795</ele>
        <time>2026-07-16T09:03:40Z</time>
      </trkpt>
      <trkpt lat="45.36022" lon="5.89906">
        <ele>1797</ele>
        <time>2026-07-16T09:03:54Z</time>
      </trkpt>
      <trkpt lat="45.36025" lon="5.89899">
        <ele>1805</ele>
        <time>2026-07-16T09:04:44Z</time>
      </trkpt>
      <trkpt lat="45.36022" lon="5.89899">
        <ele>1811</ele>
        <time>2026-07-16T09:05:27Z</time>
      </trkpt>
      <trkpt lat="45.36018" lon="5.89894">
        <ele>1810</ele>
        <time>2026-07-16T09:05:32Z</time>
      </trkpt>
      <trkpt lat="45.36028" lon="5.89886">
        <ele>1812</ele>
        <time>2026-07-16T09:05:55Z</time>
      </trkpt>
      <trkpt lat="45.36018" lon="5.89889">
        <ele>1812</ele>
        <time>2026-07-16T09:06:05Z</time>
      </trkpt>
      <trkpt lat="45.36012" lon="5.89886">
        <ele>1812</ele>
        <time>2026-07-16T09:06:16Z</time>
      </trkpt>
      <trkpt lat="45.36013" lon="5.89884">
        <ele>1812</ele>
        <time>2026-07-16T09:06:33Z</time>
      </trkpt>
      <trkpt lat="45.36012" lon="5.89877">
        <ele>1816</ele>
        <time>2026-07-16T09:06:53Z</time>
      </trkpt>
      <trkpt lat="45.36013" lon="5.89869">
        <ele>1817</ele>
        <time>2026-07-16T09:07:13Z</time>
      </trkpt>
      <trkpt lat="45.36012" lon="5.89865">
        <ele>1811</ele>
        <time>2026-07-16T09:08:06Z</time>
      </trkpt>
      <trkpt lat="45.36009" lon="5.89859">
        <ele>1810</ele>
        <time>2026-07-16T09:08:21Z</time>
      </trkpt>
      <trkpt lat="45.36011" lon="5.89853">
        <ele>1814</ele>
        <time>2026-07-16T09:08:41Z</time>
      </trkpt>
      <trkpt lat="45.36007" lon="5.89845">
        <ele>1821</ele>
        <time>2026-07-16T09:09:01Z</time>
      </trkpt>
      <trkpt lat="45.36003" lon="5.89842">
        <ele>1828</ele>
        <time>2026-07-16T09:10:09Z</time>
      </trkpt>
      <trkpt lat="45.35999" lon="5.89839">
        <ele>1827</ele>
        <time>2026-07-16T09:12:17Z</time>
      </trkpt>
      <trkpt lat="45.35994" lon="5.89837">
        <ele>1829</ele>
        <time>2026-07-16T09:16:17Z</time>
      </trkpt>
      <trkpt lat="45.35989" lon="5.89834">
        <ele>1831</ele>
        <time>2026-07-16T09:16:23Z</time>
      </trkpt>
      <trkpt lat="45.35984" lon="5.89834">
        <ele>1832</ele>
        <time>2026-07-16T09:16:31Z</time>
      </trkpt>
      <trkpt lat="45.35978" lon="5.89833">
        <ele>1832</ele>
        <time>2026-07-16T09:16:43Z</time>
      </trkpt>
      <trkpt lat="45.35973" lon="5.89833">
        <ele>1832</ele>
        <time>2026-07-16T09:16:48Z</time>
      </trkpt>
      <trkpt lat="45.35967" lon="5.89831">
        <ele>1831</ele>
        <time>2026-07-16T09:16:55Z</time>
      </trkpt>
      <trkpt lat="45.35962" lon="5.89829">
        <ele>1831</ele>
        <time>2026-07-16T09:17:02Z</time>
      </trkpt>
      <trkpt lat="45.35958" lon="5.89826">
        <ele>1832</ele>
        <time>2026-07-16T09:17:07Z</time>
      </trkpt>
      <trkpt lat="45.35954" lon="5.8982">
        <ele>1831</ele>
        <time>2026-07-16T09:17:14Z</time>
      </trkpt>
      <trkpt lat="45.3595" lon="5.89816">
        <ele>1831</ele>
        <time>2026-07-16T09:17:18Z</time>
      </trkpt>
      <trkpt lat="45.35941" lon="5.89808">
        <ele>1833</ele>
        <time>2026-07-16T09:17:30Z</time>
      </trkpt>
      <trkpt lat="45.35938" lon="5.89805">
        <ele>1833</ele>
        <time>2026-07-16T09:17:35Z</time>
      </trkpt>
      <trkpt lat="45.35933" lon="5.89802">
        <ele>1834</ele>
        <time>2026-07-16T09:17:45Z</time>
      </trkpt>
      <trkpt lat="45.3593" lon="5.89797">
        <ele>1834</ele>
        <time>2026-07-16T09:17:50Z</time>
      </trkpt>
      <trkpt lat="45.35926" lon="5.89793">
        <ele>1835</ele>
        <time>2026-07-16T09:17:58Z</time>
      </trkpt>
      <trkpt lat="45.35922" lon="5.89786">
        <ele>1834</ele>
        <time>2026-07-16T09:18:04Z</time>
      </trkpt>
      <trkpt lat="45.35912" lon="5.8977">
        <ele>1836</ele>
        <time>2026-07-16T09:18:24Z</time>
      </trkpt>
      <trkpt lat="45.35909" lon="5.89764">
        <ele>1836</ele>
        <time>2026-07-16T09:18:30Z</time>
      </trkpt>
      <trkpt lat="45.35903" lon="5.89758">
        <ele>1837</ele>
        <time>2026-07-16T09:18:38Z</time>
      </trkpt>
      <trkpt lat="45.35892" lon="5.89747">
        <ele>1835</ele>
        <time>2026-07-16T09:18:54Z</time>
      </trkpt>
      <trkpt lat="45.35885" lon="5.89741">
        <ele>1836</ele>
        <time>2026-07-16T09:19:06Z</time>
      </trkpt>
      <trkpt lat="45.3588" lon="5.8974">
        <ele>1835</ele>
        <time>2026-07-16T09:19:13Z</time>
      </trkpt>
      <trkpt lat="45.35873" lon="5.89739">
        <ele>1836</ele>
        <time>2026-07-16T09:19:22Z</time>
      </trkpt>
      <trkpt lat="45.3586" lon="5.89734">
        <ele>1836</ele>
        <time>2026-07-16T09:19:42Z</time>
      </trkpt>
      <trkpt lat="45.35857" lon="5.89731">
        <ele>1836</ele>
        <time>2026-07-16T09:19:48Z</time>
      </trkpt>
      <trkpt lat="45.3585" lon="5.89732">
        <ele>1837</ele>
        <time>2026-07-16T09:19:59Z</time>
      </trkpt>
      <trkpt lat="45.35843" lon="5.89727">
        <ele>1838</ele>
        <time>2026-07-16T09:20:11Z</time>
      </trkpt>
      <trkpt lat="45.35838" lon="5.89726">
        <ele>1837</ele>
        <time>2026-07-16T09:20:53Z</time>
      </trkpt>
      <trkpt lat="45.35833" lon="5.89718">
        <ele>1836</ele>
        <time>2026-07-16T09:21:24Z</time>
      </trkpt>
      <trkpt lat="45.35827" lon="5.89716">
        <ele>1836</ele>
        <time>2026-07-16T09:21:34Z</time>
      </trkpt>
      <trkpt lat="45.35824" lon="5.89718">
        <ele>1835</ele>
        <time>2026-07-16T09:24:01Z</time>
      </trkpt>
      <trkpt lat="45.35822" lon="5.89711">
        <ele>1835</ele>
        <time>2026-07-16T09:25:57Z</time>
      </trkpt>
      <trkpt lat="45.3582" lon="5.89706">
        <ele>1836</ele>
        <time>2026-07-16T09:26:08Z</time>
      </trkpt>
      <trkpt lat="45.35816" lon="5.89698">
        <ele>1836</ele>
        <time>2026-07-16T09:26:20Z</time>
      </trkpt>
      <trkpt lat="45.35815" lon="5.89692">
        <ele>1834</ele>
        <time>2026-07-16T09:26:40Z</time>
      </trkpt>
      <trkpt lat="45.35818" lon="5.89684">
        <ele>1833</ele>
        <time>2026-07-16T09:27:43Z</time>
      </trkpt>
      <trkpt lat="45.35822" lon="5.89682">
        <ele>1832</ele>
        <time>2026-07-16T09:27:54Z</time>
      </trkpt>
      <trkpt lat="45.35827" lon="5.89684">
        <ele>1831</ele>
        <time>2026-07-16T09:28:00Z</time>
      </trkpt>
      <trkpt lat="45.3583" lon="5.89681">
        <ele>1830</ele>
        <time>2026-07-16T09:28:11Z</time>
      </trkpt>
      <trkpt lat="45.3583" lon="5.89681">
        <ele>1833</ele>
        <time>2026-07-16T10:04:27Z</time>
      </trkpt>
      <trkpt lat="45.35817" lon="5.89684">
        <ele>1837</ele>
        <time>2026-07-16T10:04:51Z</time>
      </trkpt>
      <trkpt lat="45.35813" lon="5.89687">
        <ele>1837</ele>
        <time>2026-07-16T10:05:03Z</time>
      </trkpt>
      <trkpt lat="45.35812" lon="5.89694">
        <ele>1835</ele>
        <time>2026-07-16T10:05:15Z</time>
      </trkpt>
      <trkpt lat="45.3581" lon="5.89701">
        <ele>1832</ele>
        <time>2026-07-16T10:05:27Z</time>
      </trkpt>
      <trkpt lat="45.35811" lon="5.89709">
        <ele>1829</ele>
        <time>2026-07-16T10:05:39Z</time>
      </trkpt>
      <trkpt lat="45.35809" lon="5.89718">
        <ele>1828</ele>
        <time>2026-07-16T10:05:50Z</time>
      </trkpt>
      <trkpt lat="45.35804" lon="5.89723">
        <ele>1823</ele>
        <time>2026-07-16T10:06:02Z</time>
      </trkpt>
      <trkpt lat="45.35807" lon="5.89738">
        <ele>1821</ele>
        <time>2026-07-16T10:06:19Z</time>
      </trkpt>
      <trkpt lat="45.35811" lon="5.89735">
        <ele>1820</ele>
        <time>2026-07-16T10:06:28Z</time>
      </trkpt>
      <trkpt lat="45.35814" lon="5.89731">
        <ele>1819</ele>
        <time>2026-07-16T10:06:35Z</time>
      </trkpt>
      <trkpt lat="45.3582" lon="5.89735">
        <ele>1817</ele>
        <time>2026-07-16T10:06:47Z</time>
      </trkpt>
      <trkpt lat="45.35824" lon="5.89751">
        <ele>1810</ele>
        <time>2026-07-16T10:07:12Z</time>
      </trkpt>
      <trkpt lat="45.35819" lon="5.89748">
        <ele>1810</ele>
        <time>2026-07-16T10:07:18Z</time>
      </trkpt>
      <trkpt lat="45.35814" lon="5.8975">
        <ele>1810</ele>
        <time>2026-07-16T10:07:26Z</time>
      </trkpt>
      <trkpt lat="45.3581" lon="5.89753">
        <ele>1812</ele>
        <time>2026-07-16T10:07:30Z</time>
      </trkpt>
      <trkpt lat="45.35805" lon="5.89755">
        <ele>1813</ele>
        <time>2026-07-16T10:07:37Z</time>
      </trkpt>
      <trkpt lat="45.35803" lon="5.89763">
        <ele>1811</ele>
        <time>2026-07-16T10:07:42Z</time>
      </trkpt>
      <trkpt lat="45.35801" lon="5.89768">
        <ele>1812</ele>
        <time>2026-07-16T10:07:47Z</time>
      </trkpt>
      <trkpt lat="45.35793" lon="5.89778">
        <ele>1816</ele>
        <time>2026-07-16T10:08:00Z</time>
      </trkpt>
      <trkpt lat="45.35792" lon="5.89785">
        <ele>1816</ele>
        <time>2026-07-16T10:08:05Z</time>
      </trkpt>
      <trkpt lat="45.35788" lon="5.8979">
        <ele>1816</ele>
        <time>2026-07-16T10:08:10Z</time>
      </trkpt>
      <trkpt lat="45.35778" lon="5.89797">
        <ele>1814</ele>
        <time>2026-07-16T10:08:25Z</time>
      </trkpt>
      <trkpt lat="45.35774" lon="5.89799">
        <ele>1814</ele>
        <time>2026-07-16T10:08:30Z</time>
      </trkpt>
      <trkpt lat="45.35769" lon="5.89799">
        <ele>1814</ele>
        <time>2026-07-16T10:08:35Z</time>
      </trkpt>
      <trkpt lat="45.35762" lon="5.89796">
        <ele>1813</ele>
        <time>2026-07-16T10:08:53Z</time>
      </trkpt>
      <trkpt lat="45.35759" lon="5.89791">
        <ele>1813</ele>
        <time>2026-07-16T10:08:58Z</time>
      </trkpt>
      <trkpt lat="45.35755" lon="5.89788">
        <ele>1812</ele>
        <time>2026-07-16T10:09:03Z</time>
      </trkpt>
      <trkpt lat="45.3575" lon="5.89782">
        <ele>1812</ele>
        <time>2026-07-16T10:09:09Z</time>
      </trkpt>
      <trkpt lat="45.35745" lon="5.89776">
        <ele>1812</ele>
        <time>2026-07-16T10:09:28Z</time>
      </trkpt>
      <trkpt lat="45.35742" lon="5.89772">
        <ele>1812</ele>
        <time>2026-07-16T10:09:32Z</time>
      </trkpt>
      <trkpt lat="45.35739" lon="5.89762">
        <ele>1812</ele>
        <time>2026-07-16T10:09:41Z</time>
      </trkpt>
      <trkpt lat="45.35737" lon="5.89756">
        <ele>1812</ele>
        <time>2026-07-16T10:09:46Z</time>
      </trkpt>
      <trkpt lat="45.35736" lon="5.89746">
        <ele>1812</ele>
        <time>2026-07-16T10:09:54Z</time>
      </trkpt>
      <trkpt lat="45.35737" lon="5.89737">
        <ele>1811</ele>
        <time>2026-07-16T10:10:01Z</time>
      </trkpt>
      <trkpt lat="45.35739" lon="5.8973">
        <ele>1811</ele>
        <time>2026-07-16T10:10:09Z</time>
      </trkpt>
      <trkpt lat="45.35737" lon="5.8972">
        <ele>1813</ele>
        <time>2026-07-16T10:10:22Z</time>
      </trkpt>
      <trkpt lat="45.35738" lon="5.89713">
        <ele>1814</ele>
        <time>2026-07-16T10:10:27Z</time>
      </trkpt>
      <trkpt lat="45.3574" lon="5.89707">
        <ele>1813</ele>
        <time>2026-07-16T10:10:31Z</time>
      </trkpt>
      <trkpt lat="45.35744" lon="5.89701">
        <ele>1812</ele>
        <time>2026-07-16T10:10:35Z</time>
      </trkpt>
      <trkpt lat="45.35744" lon="5.89695">
        <ele>1812</ele>
        <time>2026-07-16T10:10:39Z</time>
      </trkpt>
      <trkpt lat="45.35743" lon="5.89687">
        <ele>1811</ele>
        <time>2026-07-16T10:10:44Z</time>
      </trkpt>
      <trkpt lat="45.35746" lon="5.89681">
        <ele>1813</ele>
        <time>2026-07-16T10:10:49Z</time>
      </trkpt>
      <trkpt lat="45.35744" lon="5.89673">
        <ele>1813</ele>
        <time>2026-07-16T10:10:54Z</time>
      </trkpt>
      <trkpt lat="45.35743" lon="5.89666">
        <ele>1813</ele>
        <time>2026-07-16T10:10:59Z</time>
      </trkpt>
      <trkpt lat="45.35742" lon="5.89646">
        <ele>1806</ele>
        <time>2026-07-16T10:11:12Z</time>
      </trkpt>
      <trkpt lat="45.35739" lon="5.89637">
        <ele>1806</ele>
        <time>2026-07-16T10:11:22Z</time>
      </trkpt>
      <trkpt lat="45.35737" lon="5.89631">
        <ele>1806</ele>
        <time>2026-07-16T10:11:28Z</time>
      </trkpt>
      <trkpt lat="45.35736" lon="5.89624">
        <ele>1805</ele>
        <time>2026-07-16T10:11:32Z</time>
      </trkpt>
      <trkpt lat="45.35735" lon="5.89618">
        <ele>1804</ele>
        <time>2026-07-16T10:11:36Z</time>
      </trkpt>
      <trkpt lat="45.35735" lon="5.8961">
        <ele>1805</ele>
        <time>2026-07-16T10:11:43Z</time>
      </trkpt>
      <trkpt lat="45.35733" lon="5.89601">
        <ele>1803</ele>
        <time>2026-07-16T10:11:50Z</time>
      </trkpt>
      <trkpt lat="45.3573" lon="5.89595">
        <ele>1802</ele>
        <time>2026-07-16T10:11:57Z</time>
      </trkpt>
      <trkpt lat="45.35731" lon="5.89588">
        <ele>1799</ele>
        <time>2026-07-16T10:12:02Z</time>
      </trkpt>
      <trkpt lat="45.35725" lon="5.8958">
        <ele>1798</ele>
        <time>2026-07-16T10:12:09Z</time>
      </trkpt>
      <trkpt lat="45.35713" lon="5.89555">
        <ele>1791</ele>
        <time>2026-07-16T10:12:39Z</time>
      </trkpt>
      <trkpt lat="45.3571" lon="5.8955">
        <ele>1790</ele>
        <time>2026-07-16T10:12:44Z</time>
      </trkpt>
      <trkpt lat="45.35709" lon="5.89542">
        <ele>1789</ele>
        <time>2026-07-16T10:12:52Z</time>
      </trkpt>
      <trkpt lat="45.35706" lon="5.89537">
        <ele>1787</ele>
        <time>2026-07-16T10:12:56Z</time>
      </trkpt>
      <trkpt lat="45.35701" lon="5.89535">
        <ele>1787</ele>
        <time>2026-07-16T10:13:00Z</time>
      </trkpt>
      <trkpt lat="45.35704" lon="5.89547">
        <ele>1780</ele>
        <time>2026-07-16T10:13:14Z</time>
      </trkpt>
      <trkpt lat="45.35706" lon="5.89552">
        <ele>1778</ele>
        <time>2026-07-16T10:13:19Z</time>
      </trkpt>
      <trkpt lat="45.35704" lon="5.89563">
        <ele>1777</ele>
        <time>2026-07-16T10:13:29Z</time>
      </trkpt>
      <trkpt lat="45.35697" lon="5.89549">
        <ele>1770</ele>
        <time>2026-07-16T10:13:54Z</time>
      </trkpt>
      <trkpt lat="45.35689" lon="5.89544">
        <ele>1767</ele>
        <time>2026-07-16T10:14:06Z</time>
      </trkpt>
      <trkpt lat="45.35684" lon="5.89539">
        <ele>1765</ele>
        <time>2026-07-16T10:14:14Z</time>
      </trkpt>
      <trkpt lat="45.35683" lon="5.89544">
        <ele>1762</ele>
        <time>2026-07-16T10:14:26Z</time>
      </trkpt>
      <trkpt lat="45.35687" lon="5.8955">
        <ele>1760</ele>
        <time>2026-07-16T10:14:34Z</time>
      </trkpt>
      <trkpt lat="45.35687" lon="5.89556">
        <ele>1758</ele>
        <time>2026-07-16T10:14:39Z</time>
      </trkpt>
      <trkpt lat="45.35689" lon="5.89562">
        <ele>1758</ele>
        <time>2026-07-16T10:14:44Z</time>
      </trkpt>
      <trkpt lat="45.35689" lon="5.89562">
        <ele>1754</ele>
        <time>2026-07-16T10:15:08Z</time>
      </trkpt>
      <trkpt lat="45.35684" lon="5.8956">
        <ele>1749</ele>
        <time>2026-07-16T10:15:20Z</time>
      </trkpt>
      <trkpt lat="45.35675" lon="5.89563">
        <ele>1747</ele>
        <time>2026-07-16T10:15:31Z</time>
      </trkpt>
      <trkpt lat="45.35666" lon="5.89558">
        <ele>1742</ele>
        <time>2026-07-16T10:15:49Z</time>
      </trkpt>
      <trkpt lat="45.35662" lon="5.89557">
        <ele>1741</ele>
        <time>2026-07-16T10:15:57Z</time>
      </trkpt>
      <trkpt lat="45.35656" lon="5.89553">
        <ele>1738</ele>
        <time>2026-07-16T10:16:09Z</time>
      </trkpt>
      <trkpt lat="45.35652" lon="5.89557">
        <ele>1734</ele>
        <time>2026-07-16T10:16:21Z</time>
      </trkpt>
      <trkpt lat="45.35656" lon="5.89564">
        <ele>1732</ele>
        <time>2026-07-16T10:16:33Z</time>
      </trkpt>
      <trkpt lat="45.35658" lon="5.89569">
        <ele>1730</ele>
        <time>2026-07-16T10:16:40Z</time>
      </trkpt>
      <trkpt lat="45.35658" lon="5.89576">
        <ele>1728</ele>
        <time>2026-07-16T10:16:50Z</time>
      </trkpt>
      <trkpt lat="45.35652" lon="5.8958">
        <ele>1725</ele>
        <time>2026-07-16T10:17:07Z</time>
      </trkpt>
      <trkpt lat="45.35647" lon="5.89578">
        <ele>1721</ele>
        <time>2026-07-16T10:17:19Z</time>
      </trkpt>
      <trkpt lat="45.35643" lon="5.89578">
        <ele>1720</ele>
        <time>2026-07-16T10:17:25Z</time>
      </trkpt>
      <trkpt lat="45.35638" lon="5.89575">
        <ele>1717</ele>
        <time>2026-07-16T10:17:37Z</time>
      </trkpt>
      <trkpt lat="45.35633" lon="5.89577">
        <ele>1716</ele>
        <time>2026-07-16T10:17:43Z</time>
      </trkpt>
      <trkpt lat="45.35635" lon="5.89588">
        <ele>1713</ele>
        <time>2026-07-16T10:17:55Z</time>
      </trkpt>
      <trkpt lat="45.3564" lon="5.89592">
        <ele>1710</ele>
        <time>2026-07-16T10:18:07Z</time>
      </trkpt>
      <trkpt lat="45.35644" lon="5.89608">
        <ele>1706</ele>
        <time>2026-07-16T10:18:21Z</time>
      </trkpt>
      <trkpt lat="45.35647" lon="5.89613">
        <ele>1705</ele>
        <time>2026-07-16T10:18:26Z</time>
      </trkpt>
      <trkpt lat="45.3565" lon="5.89619">
        <ele>1703</ele>
        <time>2026-07-16T10:18:34Z</time>
      </trkpt>
      <trkpt lat="45.35651" lon="5.89625">
        <ele>1701</ele>
        <time>2026-07-16T10:18:40Z</time>
      </trkpt>
      <trkpt lat="45.35648" lon="5.89631">
        <ele>1697</ele>
        <time>2026-07-16T10:18:52Z</time>
      </trkpt>
      <trkpt lat="45.35643" lon="5.89627">
        <ele>1697</ele>
        <time>2026-07-16T10:18:58Z</time>
      </trkpt>
      <trkpt lat="45.35639" lon="5.89631">
        <ele>1696</ele>
        <time>2026-07-16T10:19:04Z</time>
      </trkpt>
      <trkpt lat="45.35642" lon="5.89637">
        <ele>1696</ele>
        <time>2026-07-16T10:19:11Z</time>
      </trkpt>
      <trkpt lat="45.35643" lon="5.89644">
        <ele>1693</ele>
        <time>2026-07-16T10:19:23Z</time>
      </trkpt>
      <trkpt lat="45.3564" lon="5.89648">
        <ele>1686</ele>
        <time>2026-07-16T10:19:47Z</time>
      </trkpt>
      <trkpt lat="45.35636" lon="5.89655">
        <ele>1683</ele>
        <time>2026-07-16T10:19:59Z</time>
      </trkpt>
      <trkpt lat="45.3563" lon="5.89649">
        <ele>1679</ele>
        <time>2026-07-16T10:20:11Z</time>
      </trkpt>
      <trkpt lat="45.35624" lon="5.89643">
        <ele>1677</ele>
        <time>2026-07-16T10:20:29Z</time>
      </trkpt>
      <trkpt lat="45.35612" lon="5.89641">
        <ele>1675</ele>
        <time>2026-07-16T10:20:47Z</time>
      </trkpt>
      <trkpt lat="45.35616" lon="5.89657">
        <ele>1668</ele>
        <time>2026-07-16T10:21:05Z</time>
      </trkpt>
      <trkpt lat="45.35617" lon="5.89665">
        <ele>1665</ele>
        <time>2026-07-16T10:21:15Z</time>
      </trkpt>
      <trkpt lat="45.35615" lon="5.89672">
        <ele>1661</ele>
        <time>2026-07-16T10:21:26Z</time>
      </trkpt>
      <trkpt lat="45.35618" lon="5.89685">
        <ele>1658</ele>
        <time>2026-07-16T10:21:38Z</time>
      </trkpt>
      <trkpt lat="45.35613" lon="5.89685">
        <ele>1657</ele>
        <time>2026-07-16T10:21:43Z</time>
      </trkpt>
      <trkpt lat="45.35614" lon="5.89695">
        <ele>1654</ele>
        <time>2026-07-16T10:21:54Z</time>
      </trkpt>
      <trkpt lat="45.35616" lon="5.89702">
        <ele>1652</ele>
        <time>2026-07-16T10:22:02Z</time>
      </trkpt>
      <trkpt lat="45.35609" lon="5.89706">
        <ele>1650</ele>
        <time>2026-07-16T10:22:13Z</time>
      </trkpt>
      <trkpt lat="45.35611" lon="5.89715">
        <ele>1647</ele>
        <time>2026-07-16T10:22:20Z</time>
      </trkpt>
      <trkpt lat="45.35614" lon="5.89722">
        <ele>1646</ele>
        <time>2026-07-16T10:22:28Z</time>
      </trkpt>
      <trkpt lat="45.35613" lon="5.89729">
        <ele>1645</ele>
        <time>2026-07-16T10:22:33Z</time>
      </trkpt>
      <trkpt lat="45.35616" lon="5.89736">
        <ele>1642</ele>
        <time>2026-07-16T10:22:41Z</time>
      </trkpt>
      <trkpt lat="45.35617" lon="5.89749">
        <ele>1638</ele>
        <time>2026-07-16T10:22:52Z</time>
      </trkpt>
      <trkpt lat="45.35619" lon="5.89755">
        <ele>1636</ele>
        <time>2026-07-16T10:22:57Z</time>
      </trkpt>
      <trkpt lat="45.3562" lon="5.89761">
        <ele>1635</ele>
        <time>2026-07-16T10:23:01Z</time>
      </trkpt>
      <trkpt lat="45.35619" lon="5.8977">
        <ele>1633</ele>
        <time>2026-07-16T10:23:08Z</time>
      </trkpt>
      <trkpt lat="45.3562" lon="5.89776">
        <ele>1631</ele>
        <time>2026-07-16T10:23:15Z</time>
      </trkpt>
      <trkpt lat="45.35621" lon="5.89791">
        <ele>1628</ele>
        <time>2026-07-16T10:23:25Z</time>
      </trkpt>
      <trkpt lat="45.35628" lon="5.89812">
        <ele>1624</ele>
        <time>2026-07-16T10:23:51Z</time>
      </trkpt>
      <trkpt lat="45.35628" lon="5.89821">
        <ele>1622</ele>
        <time>2026-07-16T10:23:58Z</time>
      </trkpt>
      <trkpt lat="45.35632" lon="5.89825">
        <ele>1621</ele>
        <time>2026-07-16T10:24:04Z</time>
      </trkpt>
      <trkpt lat="45.35634" lon="5.89831">
        <ele>1619</ele>
        <time>2026-07-16T10:24:09Z</time>
      </trkpt>
      <trkpt lat="45.35633" lon="5.89838">
        <ele>1618</ele>
        <time>2026-07-16T10:24:14Z</time>
      </trkpt>
      <trkpt lat="45.35629" lon="5.89839">
        <ele>1616</ele>
        <time>2026-07-16T10:24:20Z</time>
      </trkpt>
      <trkpt lat="45.35621" lon="5.89834">
        <ele>1613</ele>
        <time>2026-07-16T10:24:28Z</time>
      </trkpt>
      <trkpt lat="45.35626" lon="5.89845">
        <ele>1609</ele>
        <time>2026-07-16T10:24:41Z</time>
      </trkpt>
      <trkpt lat="45.35627" lon="5.89852">
        <ele>1609</ele>
        <time>2026-07-16T10:24:45Z</time>
      </trkpt>
      <trkpt lat="45.35629" lon="5.89858">
        <ele>1608</ele>
        <time>2026-07-16T10:24:49Z</time>
      </trkpt>
      <trkpt lat="45.3563" lon="5.89863">
        <ele>1607</ele>
        <time>2026-07-16T10:24:53Z</time>
      </trkpt>
      <trkpt lat="45.35631" lon="5.89872">
        <ele>1606</ele>
        <time>2026-07-16T10:25:00Z</time>
      </trkpt>
      <trkpt lat="45.35634" lon="5.89878">
        <ele>1605</ele>
        <time>2026-07-16T10:25:05Z</time>
      </trkpt>
      <trkpt lat="45.35634" lon="5.89884">
        <ele>1603</ele>
        <time>2026-07-16T10:25:10Z</time>
      </trkpt>
      <trkpt lat="45.35636" lon="5.8989">
        <ele>1602</ele>
        <time>2026-07-16T10:25:15Z</time>
      </trkpt>
      <trkpt lat="45.35635" lon="5.89896">
        <ele>1601</ele>
        <time>2026-07-16T10:25:19Z</time>
      </trkpt>
      <trkpt lat="45.35631" lon="5.89905">
        <ele>1600</ele>
        <time>2026-07-16T10:25:25Z</time>
      </trkpt>
      <trkpt lat="45.35633" lon="5.89915">
        <ele>1598</ele>
        <time>2026-07-16T10:25:34Z</time>
      </trkpt>
      <trkpt lat="45.35631" lon="5.89922">
        <ele>1598</ele>
        <time>2026-07-16T10:25:38Z</time>
      </trkpt>
      <trkpt lat="45.35625" lon="5.8992">
        <ele>1595</ele>
        <time>2026-07-16T10:25:44Z</time>
      </trkpt>
      <trkpt lat="45.35627" lon="5.89937">
        <ele>1592</ele>
        <time>2026-07-16T10:25:58Z</time>
      </trkpt>
      <trkpt lat="45.35624" lon="5.89941">
        <ele>1590</ele>
        <time>2026-07-16T10:26:03Z</time>
      </trkpt>
      <trkpt lat="45.35619" lon="5.8994">
        <ele>1587</ele>
        <time>2026-07-16T10:26:08Z</time>
      </trkpt>
      <trkpt lat="45.35622" lon="5.89954">
        <ele>1584</ele>
        <time>2026-07-16T10:26:18Z</time>
      </trkpt>
      <trkpt lat="45.3562" lon="5.8996">
        <ele>1583</ele>
        <time>2026-07-16T10:26:22Z</time>
      </trkpt>
      <trkpt lat="45.35616" lon="5.89961">
        <ele>1583</ele>
        <time>2026-07-16T10:26:26Z</time>
      </trkpt>
      <trkpt lat="45.35613" lon="5.89976">
        <ele>1579</ele>
        <time>2026-07-16T10:26:36Z</time>
      </trkpt>
      <trkpt lat="45.35615" lon="5.89994">
        <ele>1573</ele>
        <time>2026-07-16T10:26:48Z</time>
      </trkpt>
      <trkpt lat="45.35619" lon="5.90005">
        <ele>1569</ele>
        <time>2026-07-16T10:26:56Z</time>
      </trkpt>
      <trkpt lat="45.35618" lon="5.90011">
        <ele>1569</ele>
        <time>2026-07-16T10:26:59Z</time>
      </trkpt>
      <trkpt lat="45.35621" lon="5.90026">
        <ele>1564</ele>
        <time>2026-07-16T10:27:08Z</time>
      </trkpt>
      <trkpt lat="45.35623" lon="5.90031">
        <ele>1564</ele>
        <time>2026-07-16T10:27:11Z</time>
      </trkpt>
      <trkpt lat="45.35626" lon="5.90038">
        <ele>1561</ele>
        <time>2026-07-16T10:27:16Z</time>
      </trkpt>
      <trkpt lat="45.35627" lon="5.90045">
        <ele>1561</ele>
        <time>2026-07-16T10:27:20Z</time>
      </trkpt>
      <trkpt lat="45.35633" lon="5.90055">
        <ele>1560</ele>
        <time>2026-07-16T10:27:27Z</time>
      </trkpt>
      <trkpt lat="45.35635" lon="5.90061">
        <ele>1559</ele>
        <time>2026-07-16T10:27:30Z</time>
      </trkpt>
      <trkpt lat="45.35639" lon="5.90065">
        <ele>1557</ele>
        <time>2026-07-16T10:27:34Z</time>
      </trkpt>
      <trkpt lat="45.35642" lon="5.9007">
        <ele>1556</ele>
        <time>2026-07-16T10:27:38Z</time>
      </trkpt>
      <trkpt lat="45.35645" lon="5.90074">
        <ele>1555</ele>
        <time>2026-07-16T10:27:42Z</time>
      </trkpt>
      <trkpt lat="45.35649" lon="5.90083">
        <ele>1553</ele>
        <time>2026-07-16T10:27:49Z</time>
      </trkpt>
      <trkpt lat="45.35652" lon="5.90088">
        <ele>1553</ele>
        <time>2026-07-16T10:27:53Z</time>
      </trkpt>
      <trkpt lat="45.35656" lon="5.90094">
        <ele>1551</ele>
        <time>2026-07-16T10:27:58Z</time>
      </trkpt>
      <trkpt lat="45.35658" lon="5.901">
        <ele>1550</ele>
        <time>2026-07-16T10:28:02Z</time>
      </trkpt>
      <trkpt lat="45.35669" lon="5.90123">
        <ele>1541</ele>
        <time>2026-07-16T10:28:20Z</time>
      </trkpt>
      <trkpt lat="45.35672" lon="5.90131">
        <ele>1539</ele>
        <time>2026-07-16T10:28:27Z</time>
      </trkpt>
      <trkpt lat="45.35679" lon="5.90145">
        <ele>1535</ele>
        <time>2026-07-16T10:28:41Z</time>
      </trkpt>
      <trkpt lat="45.35672" lon="5.9015">
        <ele>1536</ele>
        <time>2026-07-16T10:29:08Z</time>
      </trkpt>
      <trkpt lat="45.35667" lon="5.90151">
        <ele>1533</ele>
        <time>2026-07-16T10:29:13Z</time>
      </trkpt>
      <trkpt lat="45.35663" lon="5.90149">
        <ele>1532</ele>
        <time>2026-07-16T10:29:18Z</time>
      </trkpt>
      <trkpt lat="45.35644" lon="5.90155">
        <ele>1522</ele>
        <time>2026-07-16T10:29:37Z</time>
      </trkpt>
      <trkpt lat="45.35639" lon="5.90154">
        <ele>1520</ele>
        <time>2026-07-16T10:29:41Z</time>
      </trkpt>
      <trkpt lat="45.35632" lon="5.90155">
        <ele>1517</ele>
        <time>2026-07-16T10:29:49Z</time>
      </trkpt>
      <trkpt lat="45.35626" lon="5.90154">
        <ele>1515</ele>
        <time>2026-07-16T10:29:55Z</time>
      </trkpt>
      <trkpt lat="45.35621" lon="5.90156">
        <ele>1514</ele>
        <time>2026-07-16T10:29:59Z</time>
      </trkpt>
      <trkpt lat="45.35615" lon="5.90155">
        <ele>1512</ele>
        <time>2026-07-16T10:30:05Z</time>
      </trkpt>
      <trkpt lat="45.35609" lon="5.90157">
        <ele>1511</ele>
        <time>2026-07-16T10:30:09Z</time>
      </trkpt>
      <trkpt lat="45.356" lon="5.90155">
        <ele>1508</ele>
        <time>2026-07-16T10:30:18Z</time>
      </trkpt>
      <trkpt lat="45.35566" lon="5.90161">
        <ele>1497</ele>
        <time>2026-07-16T10:30:50Z</time>
      </trkpt>
      <trkpt lat="45.35561" lon="5.90159">
        <ele>1496</ele>
        <time>2026-07-16T10:30:53Z</time>
      </trkpt>
      <trkpt lat="45.35557" lon="5.9016">
        <ele>1494</ele>
        <time>2026-07-16T10:30:57Z</time>
      </trkpt>
      <trkpt lat="45.35552" lon="5.90159">
        <ele>1493</ele>
        <time>2026-07-16T10:31:01Z</time>
      </trkpt>
      <trkpt lat="45.35519" lon="5.9016">
        <ele>1482</ele>
        <time>2026-07-16T10:31:31Z</time>
      </trkpt>
      <trkpt lat="45.35514" lon="5.90158">
        <ele>1480</ele>
        <time>2026-07-16T10:31:35Z</time>
      </trkpt>
      <trkpt lat="45.35499" lon="5.90159">
        <ele>1476</ele>
        <time>2026-07-16T10:31:46Z</time>
      </trkpt>
      <trkpt lat="45.35494" lon="5.90162">
        <ele>1475</ele>
        <time>2026-07-16T10:31:49Z</time>
      </trkpt>
      <trkpt lat="45.3549" lon="5.90167">
        <ele>1474</ele>
        <time>2026-07-16T10:31:53Z</time>
      </trkpt>
      <trkpt lat="45.35481" lon="5.90191">
        <ele>1472</ele>
        <time>2026-07-16T10:32:07Z</time>
      </trkpt>
      <trkpt lat="45.35479" lon="5.90198">
        <ele>1472</ele>
        <time>2026-07-16T10:32:11Z</time>
      </trkpt>
      <trkpt lat="45.35473" lon="5.90226">
        <ele>1467</ele>
        <time>2026-07-16T10:32:26Z</time>
      </trkpt>
      <trkpt lat="45.35471" lon="5.90233">
        <ele>1467</ele>
        <time>2026-07-16T10:32:29Z</time>
      </trkpt>
      <trkpt lat="45.35471" lon="5.90248">
        <ele>1465</ele>
        <time>2026-07-16T10:32:37Z</time>
      </trkpt>
      <trkpt lat="45.35472" lon="5.90264">
        <ele>1460</ele>
        <time>2026-07-16T10:32:48Z</time>
      </trkpt>
      <trkpt lat="45.3547" lon="5.90275">
        <ele>1457</ele>
        <time>2026-07-16T10:32:57Z</time>
      </trkpt>
      <trkpt lat="45.35469" lon="5.90281">
        <ele>1457</ele>
        <time>2026-07-16T10:33:02Z</time>
      </trkpt>
      <trkpt lat="45.35469" lon="5.90289">
        <ele>1457</ele>
        <time>2026-07-16T10:33:08Z</time>
      </trkpt>
      <trkpt lat="45.35477" lon="5.90297">
        <ele>1454</ele>
        <time>2026-07-16T10:33:17Z</time>
      </trkpt>
      <trkpt lat="45.35482" lon="5.90297">
        <ele>1452</ele>
        <time>2026-07-16T10:33:21Z</time>
      </trkpt>
      <trkpt lat="45.35492" lon="5.90291">
        <ele>1452</ele>
        <time>2026-07-16T10:33:32Z</time>
      </trkpt>
      <trkpt lat="45.355" lon="5.90292">
        <ele>1450</ele>
        <time>2026-07-16T10:33:40Z</time>
      </trkpt>
      <trkpt lat="45.35505" lon="5.90291">
        <ele>1449</ele>
        <time>2026-07-16T10:33:43Z</time>
      </trkpt>
      <trkpt lat="45.35518" lon="5.90304">
        <ele>1444</ele>
        <time>2026-07-16T10:33:58Z</time>
      </trkpt>
      <trkpt lat="45.35523" lon="5.9032">
        <ele>1436</ele>
        <time>2026-07-16T10:34:14Z</time>
      </trkpt>
      <trkpt lat="45.3552" lon="5.90326">
        <ele>1436</ele>
        <time>2026-07-16T10:34:19Z</time>
      </trkpt>
      <trkpt lat="45.35519" lon="5.90335">
        <ele>1433</ele>
        <time>2026-07-16T10:34:26Z</time>
      </trkpt>
      <trkpt lat="45.35533" lon="5.90347">
        <ele>1427</ele>
        <time>2026-07-16T10:34:38Z</time>
      </trkpt>
      <trkpt lat="45.35538" lon="5.90347">
        <ele>1427</ele>
        <time>2026-07-16T10:34:43Z</time>
      </trkpt>
      <trkpt lat="45.35552" lon="5.90355">
        <ele>1423</ele>
        <time>2026-07-16T10:34:55Z</time>
      </trkpt>
      <trkpt lat="45.35556" lon="5.90359">
        <ele>1423</ele>
        <time>2026-07-16T10:34:58Z</time>
      </trkpt>
      <trkpt lat="45.3556" lon="5.90362">
        <ele>1421</ele>
        <time>2026-07-16T10:35:02Z</time>
      </trkpt>
      <trkpt lat="45.35565" lon="5.90361">
        <ele>1420</ele>
        <time>2026-07-16T10:35:06Z</time>
      </trkpt>
      <trkpt lat="45.35574" lon="5.90368">
        <ele>1417</ele>
        <time>2026-07-16T10:35:13Z</time>
      </trkpt>
      <trkpt lat="45.35578" lon="5.9037">
        <ele>1415</ele>
        <time>2026-07-16T10:35:16Z</time>
      </trkpt>
      <trkpt lat="45.35583" lon="5.90371">
        <ele>1414</ele>
        <time>2026-07-16T10:35:19Z</time>
      </trkpt>
      <trkpt lat="45.35595" lon="5.90382">
        <ele>1412</ele>
        <time>2026-07-16T10:35:29Z</time>
      </trkpt>
      <trkpt lat="45.35606" lon="5.90396">
        <ele>1413</ele>
        <time>2026-07-16T10:35:40Z</time>
      </trkpt>
      <trkpt lat="45.35619" lon="5.9041">
        <ele>1408</ele>
        <time>2026-07-16T10:35:53Z</time>
      </trkpt>
      <trkpt lat="45.35622" lon="5.90416">
        <ele>1407</ele>
        <time>2026-07-16T10:35:56Z</time>
      </trkpt>
      <trkpt lat="45.35625" lon="5.90421">
        <ele>1407</ele>
        <time>2026-07-16T10:36:00Z</time>
      </trkpt>
      <trkpt lat="45.35628" lon="5.90427">
        <ele>1405</ele>
        <time>2026-07-16T10:36:03Z</time>
      </trkpt>
      <trkpt lat="45.3563" lon="5.90433">
        <ele>1405</ele>
        <time>2026-07-16T10:36:06Z</time>
      </trkpt>
      <trkpt lat="45.35633" lon="5.9044">
        <ele>1404</ele>
        <time>2026-07-16T10:36:11Z</time>
      </trkpt>
      <trkpt lat="45.35638" lon="5.90453">
        <ele>1401</ele>
        <time>2026-07-16T10:36:19Z</time>
      </trkpt>
      <trkpt lat="45.35639" lon="5.90459">
        <ele>1401</ele>
        <time>2026-07-16T10:36:22Z</time>
      </trkpt>
      <trkpt lat="45.35642" lon="5.90468">
        <ele>1400</ele>
        <time>2026-07-16T10:36:28Z</time>
      </trkpt>
      <trkpt lat="45.35645" lon="5.90473">
        <ele>1399</ele>
        <time>2026-07-16T10:36:31Z</time>
      </trkpt>
      <trkpt lat="45.35655" lon="5.90507">
        <ele>1390</ele>
        <time>2026-07-16T10:36:50Z</time>
      </trkpt>
      <trkpt lat="45.35669" lon="5.90546">
        <ele>1378</ele>
        <time>2026-07-16T10:37:14Z</time>
      </trkpt>
      <trkpt lat="45.3567" lon="5.90553">
        <ele>1377</ele>
        <time>2026-07-16T10:37:17Z</time>
      </trkpt>
      <trkpt lat="45.35679" lon="5.90568">
        <ele>1372</ele>
        <time>2026-07-16T10:37:29Z</time>
      </trkpt>
      <trkpt lat="45.35687" lon="5.90577">
        <ele>1370</ele>
        <time>2026-07-16T10:37:37Z</time>
      </trkpt>
      <trkpt lat="45.35691" lon="5.90582">
        <ele>1370</ele>
        <time>2026-07-16T10:37:41Z</time>
      </trkpt>
      <trkpt lat="45.35698" lon="5.90591">
        <ele>1367</ele>
        <time>2026-07-16T10:37:49Z</time>
      </trkpt>
      <trkpt lat="45.35702" lon="5.90597">
        <ele>1366</ele>
        <time>2026-07-16T10:37:53Z</time>
      </trkpt>
      <trkpt lat="45.35709" lon="5.90606">
        <ele>1364</ele>
        <time>2026-07-16T10:38:00Z</time>
      </trkpt>
      <trkpt lat="45.35712" lon="5.90612">
        <ele>1363</ele>
        <time>2026-07-16T10:38:04Z</time>
      </trkpt>
      <trkpt lat="45.35713" lon="5.90618">
        <ele>1363</ele>
        <time>2026-07-16T10:38:07Z</time>
      </trkpt>
      <trkpt lat="45.35721" lon="5.90642">
        <ele>1357</ele>
        <time>2026-07-16T10:38:20Z</time>
      </trkpt>
      <trkpt lat="45.35723" lon="5.90649">
        <ele>1357</ele>
        <time>2026-07-16T10:38:24Z</time>
      </trkpt>
      <trkpt lat="45.35725" lon="5.90657">
        <ele>1356</ele>
        <time>2026-07-16T10:38:28Z</time>
      </trkpt>
      <trkpt lat="45.35728" lon="5.90662">
        <ele>1354</ele>
        <time>2026-07-16T10:38:32Z</time>
      </trkpt>
      <trkpt lat="45.35731" lon="5.90666">
        <ele>1353</ele>
        <time>2026-07-16T10:38:36Z</time>
      </trkpt>
      <trkpt lat="45.3574" lon="5.90692">
        <ele>1345</ele>
        <time>2026-07-16T10:38:54Z</time>
      </trkpt>
      <trkpt lat="45.35747" lon="5.90702">
        <ele>1343</ele>
        <time>2026-07-16T10:39:02Z</time>
      </trkpt>
      <trkpt lat="45.3575" lon="5.9071">
        <ele>1342</ele>
        <time>2026-07-16T10:39:06Z</time>
      </trkpt>
      <trkpt lat="45.35754" lon="5.90713">
        <ele>1340</ele>
        <time>2026-07-16T10:39:10Z</time>
      </trkpt>
      <trkpt lat="45.35758" lon="5.90725">
        <ele>1338</ele>
        <time>2026-07-16T10:39:18Z</time>
      </trkpt>
      <trkpt lat="45.35771" lon="5.90745">
        <ele>1332</ele>
        <time>2026-07-16T10:39:33Z</time>
      </trkpt>
      <trkpt lat="45.35775" lon="5.90749">
        <ele>1331</ele>
        <time>2026-07-16T10:39:37Z</time>
      </trkpt>
      <trkpt lat="45.35779" lon="5.90752">
        <ele>1331</ele>
        <time>2026-07-16T10:39:40Z</time>
      </trkpt>
      <trkpt lat="45.35785" lon="5.90756">
        <ele>1331</ele>
        <time>2026-07-16T10:39:44Z</time>
      </trkpt>
      <trkpt lat="45.35792" lon="5.90763">
        <ele>1332</ele>
        <time>2026-07-16T10:39:51Z</time>
      </trkpt>
      <trkpt lat="45.35801" lon="5.90769">
        <ele>1330</ele>
        <time>2026-07-16T10:39:59Z</time>
      </trkpt>
      <trkpt lat="45.35804" lon="5.90773">
        <ele>1328</ele>
        <time>2026-07-16T10:40:04Z</time>
      </trkpt>
      <trkpt lat="45.35807" lon="5.90781">
        <ele>1327</ele>
        <time>2026-07-16T10:40:11Z</time>
      </trkpt>
      <trkpt lat="45.35808" lon="5.90792">
        <ele>1324</ele>
        <time>2026-07-16T10:40:23Z</time>
      </trkpt>
      <trkpt lat="45.35803" lon="5.90815">
        <ele>1316</ele>
        <time>2026-07-16T10:40:44Z</time>
      </trkpt>
      <trkpt lat="45.35801" lon="5.90855">
        <ele>1306</ele>
        <time>2026-07-16T10:41:16Z</time>
      </trkpt>
      <trkpt lat="45.35802" lon="5.90869">
        <ele>1301</ele>
        <time>2026-07-16T10:41:28Z</time>
      </trkpt>
      <trkpt lat="45.35807" lon="5.90882">
        <ele>1296</ele>
        <time>2026-07-16T10:41:37Z</time>
      </trkpt>
      <trkpt lat="45.35808" lon="5.90892">
        <ele>1294</ele>
        <time>2026-07-16T10:41:44Z</time>
      </trkpt>
      <trkpt lat="45.358" lon="5.9089">
        <ele>1290</ele>
        <time>2026-07-16T10:41:59Z</time>
      </trkpt>
      <trkpt lat="45.35787" lon="5.90882">
        <ele>1288</ele>
        <time>2026-07-16T10:42:11Z</time>
      </trkpt>
      <trkpt lat="45.35775" lon="5.90877">
        <ele>1287</ele>
        <time>2026-07-16T10:42:22Z</time>
      </trkpt>
      <trkpt lat="45.35771" lon="5.90874">
        <ele>1286</ele>
        <time>2026-07-16T10:42:27Z</time>
      </trkpt>
      <trkpt lat="45.35767" lon="5.90869">
        <ele>1283</ele>
        <time>2026-07-16T10:42:34Z</time>
      </trkpt>
      <trkpt lat="45.35761" lon="5.90868">
        <ele>1281</ele>
        <time>2026-07-16T10:42:47Z</time>
      </trkpt>
      <trkpt lat="45.35755" lon="5.90879">
        <ele>1280</ele>
        <time>2026-07-16T10:42:52Z</time>
      </trkpt>
      <trkpt lat="45.35753" lon="5.90887">
        <ele>1279</ele>
        <time>2026-07-16T10:42:54Z</time>
      </trkpt>
      <trkpt lat="45.35755" lon="5.90892">
        <ele>1277</ele>
        <time>2026-07-16T10:42:58Z</time>
      </trkpt>
      <trkpt lat="45.35756" lon="5.90901">
        <ele>1274</ele>
        <time>2026-07-16T10:43:06Z</time>
      </trkpt>
      <trkpt lat="45.35755" lon="5.90912">
        <ele>1272</ele>
        <time>2026-07-16T10:43:15Z</time>
      </trkpt>
      <trkpt lat="45.35756" lon="5.90919">
        <ele>1272</ele>
        <time>2026-07-16T10:43:19Z</time>
      </trkpt>
      <trkpt lat="45.35754" lon="5.90925">
        <ele>1272</ele>
        <time>2026-07-16T10:43:24Z</time>
      </trkpt>
      <trkpt lat="45.35755" lon="5.90932">
        <ele>1272</ele>
        <time>2026-07-16T10:43:29Z</time>
      </trkpt>
      <trkpt lat="45.35755" lon="5.90941">
        <ele>1270</ele>
        <time>2026-07-16T10:43:37Z</time>
      </trkpt>
      <trkpt lat="45.35755" lon="5.90948">
        <ele>1267</ele>
        <time>2026-07-16T10:43:43Z</time>
      </trkpt>
      <trkpt lat="45.35755" lon="5.90955">
        <ele>1265</ele>
        <time>2026-07-16T10:43:49Z</time>
      </trkpt>
      <trkpt lat="45.35753" lon="5.90976">
        <ele>1259</ele>
        <time>2026-07-16T10:44:03Z</time>
      </trkpt>
      <trkpt lat="45.35756" lon="5.90988">
        <ele>1255</ele>
        <time>2026-07-16T10:44:11Z</time>
      </trkpt>
      <trkpt lat="45.35756" lon="5.91002">
        <ele>1251</ele>
        <time>2026-07-16T10:44:20Z</time>
      </trkpt>
      <trkpt lat="45.35757" lon="5.91015">
        <ele>1247</ele>
        <time>2026-07-16T10:44:28Z</time>
      </trkpt>
      <trkpt lat="45.35758" lon="5.91047">
        <ele>1241</ele>
        <time>2026-07-16T10:44:48Z</time>
      </trkpt>
      <trkpt lat="45.35759" lon="5.91052">
        <ele>1240</ele>
        <time>2026-07-16T10:44:52Z</time>
      </trkpt>
      <trkpt lat="45.35759" lon="5.91072">
        <ele>1236</ele>
        <time>2026-07-16T10:45:04Z</time>
      </trkpt>
      <trkpt lat="45.3576" lon="5.91085">
        <ele>1233</ele>
        <time>2026-07-16T10:45:12Z</time>
      </trkpt>
      <trkpt lat="45.35759" lon="5.91093">
        <ele>1232</ele>
        <time>2026-07-16T10:45:16Z</time>
      </trkpt>
      <trkpt lat="45.3576" lon="5.91099">
        <ele>1231</ele>
        <time>2026-07-16T10:45:20Z</time>
      </trkpt>
      <trkpt lat="45.3576" lon="5.91123">
        <ele>1226</ele>
        <time>2026-07-16T10:45:37Z</time>
      </trkpt>
      <trkpt lat="45.35761" lon="5.91137">
        <ele>1222</ele>
        <time>2026-07-16T10:45:46Z</time>
      </trkpt>
      <trkpt lat="45.35759" lon="5.91157">
        <ele>1216</ele>
        <time>2026-07-16T10:45:58Z</time>
      </trkpt>
      <trkpt lat="45.35761" lon="5.91171">
        <ele>1211</ele>
        <time>2026-07-16T10:46:06Z</time>
      </trkpt>
      <trkpt lat="45.35762" lon="5.91212">
        <ele>1198</ele>
        <time>2026-07-16T10:46:40Z</time>
      </trkpt>
      <trkpt lat="45.35761" lon="5.9122">
        <ele>1194</ele>
        <time>2026-07-16T10:46:47Z</time>
      </trkpt>
      <trkpt lat="45.35762" lon="5.91227">
        <ele>1193</ele>
        <time>2026-07-16T10:46:52Z</time>
      </trkpt>
      <trkpt lat="45.35763" lon="5.91271">
        <ele>1183</ele>
        <time>2026-07-16T10:47:21Z</time>
      </trkpt>
      <trkpt lat="45.35765" lon="5.91285">
        <ele>1180</ele>
        <time>2026-07-16T10:47:29Z</time>
      </trkpt>
      <trkpt lat="45.35763" lon="5.91319">
        <ele>1173</ele>
        <time>2026-07-16T10:47:50Z</time>
      </trkpt>
      <trkpt lat="45.35748" lon="5.91326">
        <ele>1168</ele>
        <time>2026-07-16T10:48:05Z</time>
      </trkpt>
      <trkpt lat="45.35741" lon="5.91325">
        <ele>1168</ele>
        <time>2026-07-16T10:48:10Z</time>
      </trkpt>
      <trkpt lat="45.35736" lon="5.91329">
        <ele>1167</ele>
        <time>2026-07-16T10:48:14Z</time>
      </trkpt>
      <trkpt lat="45.35733" lon="5.91332">
        <ele>1166</ele>
        <time>2026-07-16T10:48:19Z</time>
      </trkpt>
      <trkpt lat="45.35729" lon="5.91337">
        <ele>1164</ele>
        <time>2026-07-16T10:48:24Z</time>
      </trkpt>
      <trkpt lat="45.35725" lon="5.91339">
        <ele>1163</ele>
        <time>2026-07-16T10:48:28Z</time>
      </trkpt>
      <trkpt lat="45.35722" lon="5.91344">
        <ele>1161</ele>
        <time>2026-07-16T10:48:32Z</time>
      </trkpt>
      <trkpt lat="45.35721" lon="5.91351">
        <ele>1160</ele>
        <time>2026-07-16T10:48:35Z</time>
      </trkpt>
      <trkpt lat="45.3572" lon="5.91357">
        <ele>1160</ele>
        <time>2026-07-16T10:48:37Z</time>
      </trkpt>
      <trkpt lat="45.35714" lon="5.91383">
        <ele>1155</ele>
        <time>2026-07-16T10:48:53Z</time>
      </trkpt>
      <trkpt lat="45.35706" lon="5.91406">
        <ele>1150</ele>
        <time>2026-07-16T10:49:08Z</time>
      </trkpt>
      <trkpt lat="45.35706" lon="5.91412">
        <ele>1148</ele>
        <time>2026-07-16T10:49:12Z</time>
      </trkpt>
      <trkpt lat="45.35705" lon="5.91419">
        <ele>1148</ele>
        <time>2026-07-16T10:49:16Z</time>
      </trkpt>
      <trkpt lat="45.35705" lon="5.91434">
        <ele>1144</ele>
        <time>2026-07-16T10:49:25Z</time>
      </trkpt>
      <trkpt lat="45.35701" lon="5.91475">
        <ele>1135</ele>
        <time>2026-07-16T10:49:49Z</time>
      </trkpt>
      <trkpt lat="45.35699" lon="5.91481">
        <ele>1133</ele>
        <time>2026-07-16T10:49:53Z</time>
      </trkpt>
      <trkpt lat="45.35694" lon="5.91499">
        <ele>1130</ele>
        <time>2026-07-16T10:50:05Z</time>
      </trkpt>
      <trkpt lat="45.35691" lon="5.91504">
        <ele>1131</ele>
        <time>2026-07-16T10:50:09Z</time>
      </trkpt>
      <trkpt lat="45.35674" lon="5.91532">
        <ele>1126</ele>
        <time>2026-07-16T10:50:31Z</time>
      </trkpt>
      <trkpt lat="45.35672" lon="5.91538">
        <ele>1123</ele>
        <time>2026-07-16T10:50:35Z</time>
      </trkpt>
      <trkpt lat="45.35668" lon="5.91543">
        <ele>1123</ele>
        <time>2026-07-16T10:50:39Z</time>
      </trkpt>
      <trkpt lat="45.35666" lon="5.91548">
        <ele>1123</ele>
        <time>2026-07-16T10:50:43Z</time>
      </trkpt>
      <trkpt lat="45.35654" lon="5.91569">
        <ele>1117</ele>
        <time>2026-07-16T10:51:00Z</time>
      </trkpt>
      <trkpt lat="45.35652" lon="5.91575">
        <ele>1117</ele>
        <time>2026-07-16T10:51:04Z</time>
      </trkpt>
      <trkpt lat="45.35648" lon="5.91588">
        <ele>1113</ele>
        <time>2026-07-16T10:51:13Z</time>
      </trkpt>
      <trkpt lat="45.35644" lon="5.91601">
        <ele>1111</ele>
        <time>2026-07-16T10:51:22Z</time>
      </trkpt>
      <trkpt lat="45.3564" lon="5.91613">
        <ele>1109</ele>
        <time>2026-07-16T10:51:31Z</time>
      </trkpt>
      <trkpt lat="45.35642" lon="5.91619">
        <ele>1106</ele>
        <time>2026-07-16T10:51:36Z</time>
      </trkpt>
      <trkpt lat="45.35643" lon="5.91639">
        <ele>1100</ele>
        <time>2026-07-16T10:51:50Z</time>
      </trkpt>
      <trkpt lat="45.35644" lon="5.91646">
        <ele>1099</ele>
        <time>2026-07-16T10:51:55Z</time>
      </trkpt>
      <trkpt lat="45.35641" lon="5.91652">
        <ele>1096</ele>
        <time>2026-07-16T10:52:00Z</time>
      </trkpt>
      <trkpt lat="45.35637" lon="5.91658">
        <ele>1096</ele>
        <time>2026-07-16T10:52:04Z</time>
      </trkpt>
      <trkpt lat="45.35633" lon="5.91659">
        <ele>1098</ele>
        <time>2026-07-16T10:52:08Z</time>
      </trkpt>
      <trkpt lat="45.35626" lon="5.91666">
        <ele>1099</ele>
        <time>2026-07-16T10:52:22Z</time>
      </trkpt>
      <trkpt lat="45.35618" lon="5.91673">
        <ele>1099</ele>
        <time>2026-07-16T10:52:31Z</time>
      </trkpt>
      <trkpt lat="45.35598" lon="5.91712">
        <ele>1092</ele>
        <time>2026-07-16T10:53:05Z</time>
      </trkpt>
      <trkpt lat="45.35595" lon="5.91717">
        <ele>1090</ele>
        <time>2026-07-16T10:53:09Z</time>
      </trkpt>
      <trkpt lat="45.35596" lon="5.91724">
        <ele>1088</ele>
        <time>2026-07-16T10:53:14Z</time>
      </trkpt>
      <trkpt lat="45.35598" lon="5.91729">
        <ele>1088</ele>
        <time>2026-07-16T10:53:18Z</time>
      </trkpt>
      <trkpt lat="45.35602" lon="5.91732">
        <ele>1086</ele>
        <time>2026-07-16T10:53:22Z</time>
      </trkpt>
      <trkpt lat="45.35607" lon="5.91739">
        <ele>1083</ele>
        <time>2026-07-16T10:53:29Z</time>
      </trkpt>
      <trkpt lat="45.35624" lon="5.91744">
        <ele>1077</ele>
        <time>2026-07-16T10:53:48Z</time>
      </trkpt>
      <trkpt lat="45.35634" lon="5.91754">
        <ele>1073</ele>
        <time>2026-07-16T10:53:59Z</time>
      </trkpt>
      <trkpt lat="45.35638" lon="5.91763">
        <ele>1073</ele>
        <time>2026-07-16T10:54:07Z</time>
      </trkpt>
      <trkpt lat="45.35639" lon="5.91769">
        <ele>1072</ele>
        <time>2026-07-16T10:54:11Z</time>
      </trkpt>
      <trkpt lat="45.35641" lon="5.91777">
        <ele>1072</ele>
        <time>2026-07-16T10:54:16Z</time>
      </trkpt>
      <trkpt lat="45.35645" lon="5.91789">
        <ele>1069</ele>
        <time>2026-07-16T10:54:25Z</time>
      </trkpt>
      <trkpt lat="45.35649" lon="5.91809">
        <ele>1067</ele>
        <time>2026-07-16T10:54:38Z</time>
      </trkpt>
      <trkpt lat="45.35648" lon="5.91816">
        <ele>1067</ele>
        <time>2026-07-16T10:54:43Z</time>
      </trkpt>
      <trkpt lat="45.35648" lon="5.91824">
        <ele>1066</ele>
        <time>2026-07-16T10:54:48Z</time>
      </trkpt>
      <trkpt lat="45.35649" lon="5.9183">
        <ele>1066</ele>
        <time>2026-07-16T10:54:52Z</time>
      </trkpt>
      <trkpt lat="45.35645" lon="5.91846">
        <ele>1066</ele>
        <time>2026-07-16T10:55:03Z</time>
      </trkpt>
      <trkpt lat="45.35642" lon="5.91851">
        <ele>1066</ele>
        <time>2026-07-16T10:55:08Z</time>
      </trkpt>
      <trkpt lat="45.35633" lon="5.91858">
        <ele>1065</ele>
        <time>2026-07-16T10:55:17Z</time>
      </trkpt>
      <trkpt lat="45.35627" lon="5.91861">
        <ele>1066</ele>
        <time>2026-07-16T10:55:24Z</time>
      </trkpt>
      <trkpt lat="45.35619" lon="5.91868">
        <ele>1066</ele>
        <time>2026-07-16T10:55:34Z</time>
      </trkpt>
      <trkpt lat="45.35614" lon="5.91871">
        <ele>1067</ele>
        <time>2026-07-16T10:55:39Z</time>
      </trkpt>
      <trkpt lat="45.3561" lon="5.91873">
        <ele>1066</ele>
        <time>2026-07-16T10:55:43Z</time>
      </trkpt>
      <trkpt lat="45.35604" lon="5.91876">
        <ele>1066</ele>
        <time>2026-07-16T10:55:48Z</time>
      </trkpt>
      <trkpt lat="45.35599" lon="5.91876">
        <ele>1066</ele>
        <time>2026-07-16T10:55:53Z</time>
      </trkpt>
      <trkpt lat="45.35592" lon="5.9188">
        <ele>1066</ele>
        <time>2026-07-16T10:56:07Z</time>
      </trkpt>
      <trkpt lat="45.35588" lon="5.91884">
        <ele>1066</ele>
        <time>2026-07-16T10:56:12Z</time>
      </trkpt>
      <trkpt lat="45.35588" lon="5.9189">
        <ele>1065</ele>
        <time>2026-07-16T10:56:21Z</time>
      </trkpt>
      <trkpt lat="45.35592" lon="5.91897">
        <ele>1064</ele>
        <time>2026-07-16T10:56:33Z</time>
      </trkpt>
      <trkpt lat="45.35595" lon="5.91902">
        <ele>1065</ele>
        <time>2026-07-16T10:56:44Z</time>
      </trkpt>
      <trkpt lat="45.35597" lon="5.91909">
        <ele>1067</ele>
        <time>2026-07-16T10:57:14Z</time>
      </trkpt>
    </trkseg>
  </trk>
</gpx>